Observation data for Segovia 7SSW on 06/16/2019      Previous  Date  Next       Current Mesonet Observations  Soil Data  Daily Summary Page  Observations in Plain Language
KSE2 160500Z 27007KT 27/19 A2997 RMK A01 T02690190  RH  062%=      5-min Rain = 0
KSE2 160501Z 28006KT 27/18 A2997 RMK A01 T02680184  RH  060%=      5-min Rain = 0
KSE2 160502Z 27004KT 27/18 A2997 RMK A01 T02670184  RH  060%=      5-min Rain = 0
KSE2 160503Z 27006KT 27/18 A2997 RMK A01 T02670182  RH  060%=      5-min Rain = 0
KSE2 160504Z 25004KT 27/18 A2996 RMK A01 T02660180  RH  059%=      5-min Rain = 0
KSE2 160505Z 25004KT 27/18 A2996 RMK A01 T02650178  RH  059%=      5-min Rain = 0
KSE2 160506Z 25003KT 27/18 A2996 RMK A01 T02650181  RH  060%=      5-min Rain = 0
KSE2 160507Z 23005KT 27/18 A2996 RMK A01 T02650181  RH  060%=      5-min Rain = 0
KSE2 160508Z 24007KT 26/18 A2996 RMK A01 T02640178  RH  059%=      5-min Rain = 0
KSE2 160509Z 23006KT 26/18 A2996 RMK A01 T02630175  RH  058%=      5-min Rain = 0
KSE2 160510Z 22008KT 26/18 A2996 RMK A01 T02630178  RH  060%=      5-min Rain = 0
KSE2 160511Z 21009KT 26/19 A2996 RMK A01 T02620186  RH  063%=      5-min Rain = 0
KSE2 160512Z 20008KT 26/19 A2995 RMK A01 T02630193  RH  065%=      5-min Rain = 0
KSE2 160513Z 20008KT 26/19 A2996 RMK A01 T02640194  RH  065%=      5-min Rain = 0
KSE2 160514Z 20007KT 26/19 A2996 RMK A01 T02640191  RH  064%=      5-min Rain = 0
KSE2 160515Z 21005KT 26/19 A2996 RMK A01 T02630187  RH  063%=      5-min Rain = 0
KSE2 160516Z 23006KT 26/19 A2996 RMK A01 T02620186  RH  063%=      5-min Rain = 0
KSE2 160517Z 24006KT 26/19 A2996 RMK A01 T02600185  RH  063%=      5-min Rain = 0
KSE2 160518Z 25005KT 26/18 A2996 RMK A01 T02590184  RH  063%=      5-min Rain = 0
KSE2 160519Z 25006KT 26/18 A2996 RMK A01 T02580183  RH  063%=      5-min Rain = 0
KSE2 160520Z 27005KT 26/18 A2997 RMK A01 T02570180  RH  062%=      5-min Rain = 0
KSE2 160521Z 27007KT 26/18 A2997 RMK A01 T02570176  RH  061%=      5-min Rain = 0
KSE2 160522Z 27007G12KT 26/17 A2996 RMK A01 T02570173  RH  060%=      5-min Rain = 0
KSE2 160523Z 27008G13KT 26/17 A2996 RMK A01 T02560168  RH  058%=      5-min Rain = 0
KSE2 160524Z 26008KT 25/17 A2996 RMK A01 T02540166  RH  058%=      5-min Rain = 0
KSE2 160525Z 26007KT 25/17 A2996 RMK A01 T02530167  RH  059%=      5-min Rain = 0
KSE2 160526Z 25007KT 25/17 A2996 RMK A01 T02520166  RH  059%=      5-min Rain = 0
KSE2 160527Z 24005KT 25/17 A2996 RMK A01 T02510166  RH  059%=      5-min Rain = 0
KSE2 160528Z 24005KT 25/17 A2995 RMK A01 T02510167  RH  059%=      5-min Rain = 0
KSE2 160529Z 24006KT 25/17 A2996 RMK A01 T02500167  RH  060%=      5-min Rain = 0
KSE2 160530Z 23009KT 25/17 A2996 RMK A01 T02500167  RH  060%=      5-min Rain = 0
KSE2 160531Z 23009KT 25/17 A2996 RMK A01 T02500165  RH  059%=      5-min Rain = 0
KSE2 160532Z 23008KT 25/17 A2996 RMK A01 T02500166  RH  060%=      5-min Rain = 0
KSE2 160533Z 24009KT 25/16 A2996 RMK A01 T02500164  RH  059%=      5-min Rain = 0
KSE2 160534Z 24009KT 25/16 A2996 RMK A01 T02490162  RH  058%=      5-min Rain = 0
KSE2 160535Z 24009KT 25/16 A2996 RMK A01 T02480162  RH  059%=      5-min Rain = 0
KSE2 160536Z 23007G12KT 25/16 A2996 RMK A01 T02470162  RH  059%=      5-min Rain = 0
KSE2 160537Z 22006KT 25/16 A2996 RMK A01 T02460163  RH  060%=      5-min Rain = 0
KSE2 160538Z 22008KT 25/16 A2996 RMK A01 T02450160  RH  059%=      5-min Rain = 0
KSE2 160539Z 22006KT 24/16 A2996 RMK A01 T02440158  RH  058%=      5-min Rain = 0
KSE2 160540Z 22008KT 24/16 A2995 RMK A01 T02440157  RH  058%=      5-min Rain = 0
KSE2 160541Z 22008KT 24/15 A2995 RMK A01 T02430154  RH  058%=      5-min Rain = 0
KSE2 160542Z 22006KT 24/15 A2995 RMK A01 T02430154  RH  058%=      5-min Rain = 0
KSE2 160543Z 22007KT 24/15 A2995 RMK A01 T02430153  RH  057%=      5-min Rain = 0
KSE2 160544Z 22008KT 24/15 A2995 RMK A01 T02420152  RH  057%=      5-min Rain = 0
KSE2 160545Z 22007KT 24/15 A2995 RMK A01 T02420152  RH  057%=      5-min Rain = 0
KSE2 160546Z 22007KT 24/15 A2995 RMK A01 T02420153  RH  057%=      5-min Rain = 0
KSE2 160547Z 23007KT 24/15 A2994 RMK A01 T02420154  RH  058%=      5-min Rain = 0
KSE2 160548Z 21007KT 24/16 A2994 RMK A01 T02420155  RH  058%=      5-min Rain = 0
KSE2 160549Z 21007KT 24/15 A2994 RMK A01 T02420153  RH  057%=      5-min Rain = 0
KSE2 160550Z 21007KT 24/15 A2994 RMK A01 T02420151  RH  057%=      5-min Rain = 0
KSE2 160551Z 21006KT 24/15 A2994 RMK A01 T02420151  RH  057%=      5-min Rain = 0
KSE2 160552Z 21008KT 24/15 A2994 RMK A01 T02420151  RH  057%=      5-min Rain = 0
KSE2 160553Z 22009KT 24/15 A2994 RMK A01 T02420150  RH  056%=      5-min Rain = 0
KSE2 160554Z 22006KT 24/15 A2994 RMK A01 T02420148  RH  056%=      5-min Rain = 0
KSE2 160555Z 22006KT 24/15 A2994 RMK A01 T02420147  RH  055%=      5-min Rain = 0
KSE2 160556Z 22007KT 24/15 A2994 RMK A01 T02420145  RH  055%=      5-min Rain = 0
KSE2 160557Z 22007KT 24/14 A2994 RMK A01 T02420144  RH  054%=      5-min Rain = 0
KSE2 160558Z 22007KT 24/15 A2995 RMK A01 T02420145  RH  055%=      5-min Rain = 0
KSE2 160559Z 22006KT 24/15 A2995 RMK A01 T02410145  RH  055%=      5-min Rain = 0
KSE2 160600Z 22005KT 24/15 A2995 RMK A01 T02410145  RH  055%=      5-min Rain = 0
KSE2 160601Z 22006KT 24/15 A2995 RMK A01 T02410146  RH  055%=      5-min Rain = 0
KSE2 160602Z 22007KT 24/15 A2995 RMK A01 T02400146  RH  055%=      5-min Rain = 0
KSE2 160603Z 21006KT 24/14 A2995 RMK A01 T02400144  RH  055%=      5-min Rain = 0
KSE2 160604Z 21006KT 24/14 A2995 RMK A01 T02400144  RH  055%=      5-min Rain = 0
KSE2 160605Z 20006KT 24/15 A2995 RMK A01 T02400145  RH  055%=      5-min Rain = 0
KSE2 160606Z 20005KT 24/15 A2995 RMK A01 T02400145  RH  055%=      5-min Rain = 0
KSE2 160607Z 19004KT 24/14 A2994 RMK A01 T02400143  RH  055%=      5-min Rain = 0
KSE2 160608Z 20005KT 24/14 A2994 RMK A01 T02390140  RH  054%=      5-min Rain = 0
KSE2 160609Z 18004KT 24/14 A2994 RMK A01 T02400140  RH  053%=      5-min Rain = 0
KSE2 160610Z 16005KT 24/14 A2994 RMK A01 T02400139  RH  053%=      5-min Rain = 0
KSE2 160611Z 15005KT 24/14 A2993 RMK A01 T02400138  RH  053%=      5-min Rain = 0
KSE2 160612Z 14005KT 24/14 A2993 RMK A01 T02400139  RH  053%=      5-min Rain = 0
KSE2 160613Z 14005KT 24/14 A2993 RMK A01 T02400141  RH  054%=      5-min Rain = 0
KSE2 160614Z 14005KT 24/14 A2993 RMK A01 T02390141  RH  054%=      5-min Rain = 0
KSE2 160615Z 15004KT 24/14 A2993 RMK A01 T02390141  RH  054%=      5-min Rain = 0
KSE2 160616Z 15005KT 24/14 A2993 RMK A01 T02390140  RH  054%=      5-min Rain = 0
KSE2 160617Z 15005KT 24/14 A2993 RMK A01 T02390139  RH  054%=      5-min Rain = 0
KSE2 160618Z 15005KT 24/14 A2993 RMK A01 T02390140  RH  054%=      5-min Rain = 0
KSE2 160619Z 14005KT 24/14 A2993 RMK A01 T02390140  RH  054%=      5-min Rain = 0
KSE2 160620Z 14004KT 24/14 A2993 RMK A01 T02390141  RH  054%=      5-min Rain = 0
KSE2 160621Z 14003KT 24/14 A2993 RMK A01 T02390141  RH  054%=      5-min Rain = 0
KSE2 160622Z 14004KT 24/14 A2993 RMK A01 T02380143  RH  055%=      5-min Rain = 0
KSE2 160623Z 14004KT 24/14 A2993 RMK A01 T02380144  RH  056%=      5-min Rain = 0
KSE2 160624Z 14004KT 24/14 A2993 RMK A01 T02370144  RH  056%=      5-min Rain = 0
KSE2 160625Z 13005KT 24/14 A2993 RMK A01 T02370144  RH  056%=      5-min Rain = 0
KSE2 160626Z 14005KT 24/15 A2993 RMK A01 T02370145  RH  056%=      5-min Rain = 0
KSE2 160627Z 15004KT 24/15 A2993 RMK A01 T02360145  RH  056%=      5-min Rain = 0
KSE2 160628Z 16003KT 24/15 A2993 RMK A01 T02360145  RH  056%=      5-min Rain = 0
KSE2 160629Z 16002KT 24/15 A2993 RMK A01 T02360145  RH  056%=      5-min Rain = 0
KSE2 160630Z 17003KT 24/15 A2993 RMK A01 T02360145  RH  056%=      5-min Rain = 0
KSE2 160631Z 17004KT 24/15 A2993 RMK A01 T02370146  RH  057%=      5-min Rain = 0
KSE2 160632Z 18004KT 24/15 A2993 RMK A01 T02360146  RH  057%=      5-min Rain = 0
KSE2 160633Z 18003KT 24/15 A2993 RMK A01 T02360146  RH  057%=      5-min Rain = 0
KSE2 160634Z 19003KT 24/15 A2993 RMK A01 T02360147  RH  057%=      5-min Rain = 0
KSE2 160635Z 20004KT 24/15 A2993 RMK A01 T02360147  RH  057%=      5-min Rain = 0
KSE2 160636Z 21003KT 24/15 A2993 RMK A01 T02360147  RH  057%=      5-min Rain = 0
KSE2 160637Z 20004KT 24/15 A2993 RMK A01 T02360147  RH  057%=      5-min Rain = 0
KSE2 160638Z 21003KT 24/15 A2993 RMK A01 T02370148  RH  058%=      5-min Rain = 0
KSE2 160639Z 19002KT 24/15 A2993 RMK A01 T02370149  RH  058%=      5-min Rain = 0
KSE2 160640Z 22003KT 24/15 A2993 RMK A01 T02370149  RH  058%=      5-min Rain = 0
KSE2 160641Z 22004KT 24/15 A2993 RMK A01 T02380151  RH  058%=      5-min Rain = 0
KSE2 160642Z 23002KT 24/15 A2993 RMK A01 T02390153  RH  059%=      5-min Rain = 0
KSE2 160643Z 22001KT 24/16 A2993 RMK A01 T02400156  RH  059%=      5-min Rain = 0
KSE2 160644Z 20001KT 24/16 A2993 RMK A01 T02410157  RH  059%=      5-min Rain = 0
KSE2 160645Z 23002KT 24/15 A2993 RMK A01 T02420154  RH  058%=      5-min Rain = 0
KSE2 160646Z 14001KT 24/16 A2993 RMK A01 T02420155  RH  058%=      5-min Rain = 0
KSE2 160647Z 15003KT 24/16 A2993 RMK A01 T02430157  RH  059%=      5-min Rain = 0
KSE2 160648Z 17004KT 24/16 A2993 RMK A01 T02430159  RH  060%=      5-min Rain = 0
KSE2 160649Z 18003KT 24/16 A2993 RMK A01 T02420164  RH  062%=      5-min Rain = 0
KSE2 160650Z 18004KT 24/17 A2993 RMK A01 T02420165  RH  062%=      5-min Rain = 0
KSE2 160651Z 16006KT 24/17 A2992 RMK A01 T02430173  RH  065%=      5-min Rain = 0
KSE2 160652Z 16007KT 24/18 A2992 RMK A01 T02430179  RH  067%=      5-min Rain = 0
KSE2 160653Z 16007KT 24/19 A2992 RMK A01 T02440186  RH  070%=      5-min Rain = 0
KSE2 160654Z 16007KT 25/19 A2992 RMK A01 T02460189  RH  071%=      5-min Rain = 0
KSE2 160655Z 15006KT 25/19 A2992 RMK A01 T02470190  RH  071%=      5-min Rain = 0
KSE2 160656Z 16006KT 25/19 A2992 RMK A01 T02470192  RH  072%=      5-min Rain = 0
KSE2 160657Z 15009KT 25/19 A2992 RMK A01 T02470194  RH  072%=      5-min Rain = 0
KSE2 160658Z 15012KT 25/20 A2992 RMK A01 T02470198  RH  074%=      5-min Rain = 0
KSE2 160659Z 15008KT 25/20 A2991 RMK A01 T02480199  RH  074%=      5-min Rain = 0
KSE2 160700Z 15008KT 25/20 A2991 RMK A01 T02490200  RH  074%=      5-min Rain = 0
KSE2 160701Z 15012KT 25/20 A2991 RMK A01 T02490202  RH  075%=      5-min Rain = 0
KSE2 160702Z 15011KT 25/20 A2991 RMK A01 T02490204  RH  076%=      5-min Rain = 0
KSE2 160703Z 14011KT 25/21 A299 RMK A01 T02490205  RH  076%=      5-min Rain = 0
KSE2 160704Z 14011KT 25/21 A299 RMK A01 T02500207  RH  077%=      5-min Rain = 0
KSE2 160705Z 14012KT 25/21 A299 RMK A01 T02500207  RH  077%=      5-min Rain = 0
KSE2 160706Z 15013KT 25/21 A299 RMK A01 T02500208  RH  077%=      5-min Rain = 0
KSE2 160707Z 15011KT 25/21 A2991 RMK A01 T02500208  RH  078%=      5-min Rain = 0
KSE2 160708Z 16010KT 25/21 A2991 RMK A01 T02500209  RH  078%=      5-min Rain = 0
KSE2 160709Z 17009KT 25/21 A2991 RMK A01 T02500209  RH  078%=      5-min Rain = 0
KSE2 160710Z 16011KT 25/21 A2991 RMK A01 T02500209  RH  078%=      5-min Rain = 0
KSE2 160711Z 16011KT 25/21 A2991 RMK A01 T02500210  RH  078%=      5-min Rain = 0
KSE2 160712Z 15009G14KT 25/21 A2991 RMK A01 T02500210  RH  078%=      5-min Rain = 0
KSE2 160713Z 16012KT 25/21 A2991 RMK A01 T02500210  RH  078%=      5-min Rain = 0
KSE2 160714Z 17009KT 25/21 A2991 RMK A01 T02500210  RH  079%=      5-min Rain = 0
KSE2 160715Z 16010KT 25/21 A2991 RMK A01 T02500211  RH  079%=      5-min Rain = 0
KSE2 160716Z 17008KT 25/21 A2991 RMK A01 T02500211  RH  079%=      5-min Rain = 0
KSE2 160717Z 16009KT 25/21 A2991 RMK A01 T02490211  RH  079%=      5-min Rain = 0
KSE2 160718Z 16011KT 25/21 A299 RMK A01 T02490211  RH  079%=      5-min Rain = 0
KSE2 160719Z 15010KT 25/21 A299 RMK A01 T02490211  RH  080%=      5-min Rain = 0
KSE2 160720Z 15010KT 25/21 A299 RMK A01 T02490212  RH  080%=      5-min Rain = 0
KSE2 160721Z 15012KT 25/21 A299 RMK A01 T02490212  RH  080%=      5-min Rain = 0
KSE2 160722Z 14009KT 25/21 A2989 RMK A01 T02480212  RH  080%=      5-min Rain = 0
KSE2 160723Z 15010KT 25/21 A2989 RMK A01 T02480212  RH  081%=      5-min Rain = 0
KSE2 160724Z 14014KT 25/21 A2989 RMK A01 T02480213  RH  081%=      5-min Rain = 0
KSE2 160725Z 14013G18KT 25/21 A2988 RMK A01 T02480213  RH  081%=      5-min Rain = 0
KSE2 160726Z 15017KT 25/21 A2988 RMK A01 T02480213  RH  081%=      5-min Rain = 0
KSE2 160727Z 14015KT 25/21 A2988 RMK A01 T02480212  RH  080%=      5-min Rain = 0
KSE2 160728Z 14016KT 25/21 A2988 RMK A01 T02480213  RH  081%=      5-min Rain = 0
KSE2 160729Z 15017KT 25/21 A2987 RMK A01 T02480213  RH  081%=      5-min Rain = 0
KSE2 160730Z 14018G24KT 25/21 A2987 RMK A01 T02480213  RH  081%=      5-min Rain = 0
KSE2 160731Z 14017KT 25/21 A2986 RMK A01 T02480213  RH  081%=      5-min Rain = 0
KSE2 160732Z 14020G25KT 25/21 A2985 RMK A01 T02480213  RH  081%=      5-min Rain = 0
KSE2 160733Z 13017KT 25/21 A2984 RMK A01 T02470213  RH  081%=      5-min Rain = 0
KSE2 160734Z 14020G26KT 25/21 A2984 RMK A01 T02460213  RH  082%=      5-min Rain = 0
KSE2 160735Z 14023G30KT 25/21 A2983 RMK A01 T02450213  RH  082%=      5-min Rain = 0
KSE2 160736Z 14020G25KT 25/21 A2983 RMK A01 T02450213  RH  082%=      5-min Rain = 0
KSE2 160737Z 15020G27KT 25/21 A2983 RMK A01 T02450213  RH  083%=      5-min Rain = 0
KSE2 160738Z 14020G25KT 24/21 A2983 RMK A01 T02440213  RH  083%=      5-min Rain = 0
KSE2 160739Z 15023G30KT 24/21 A2984 RMK A01 T02440212  RH  082%=      5-min Rain = 0
KSE2 160740Z 15020KT 25/21 A2984 RMK A01 T02450212  RH  082%=      5-min Rain = 0
KSE2 160741Z 16019G24KT 25/21 A2984 RMK A01 T02450212  RH  082%=      5-min Rain = 0
KSE2 160742Z 15018G24KT 25/21 A2984 RMK A01 T02450212  RH  082%=      5-min Rain = 0
KSE2 160743Z 15018G23KT 25/21 A2985 RMK A01 T02450212  RH  082%=      5-min Rain = 0
KSE2 160744Z 16012KT 25/21 A2985 RMK A01 T02450213  RH  082%=      5-min Rain = 0
KSE2 160745Z 16014G20KT 25/21 A2985 RMK A01 T02450212  RH  082%=      5-min Rain = 0
KSE2 160746Z 16010G17KT 25/21 A2985 RMK A01 T02450213  RH  082%=      5-min Rain = 0
KSE2 160747Z 15010G16KT 24/21 A2985 RMK A01 T02440212  RH  082%=      5-min Rain = 0
KSE2 160748Z 15010KT 24/21 A2985 RMK A01 T02440213  RH  083%=      5-min Rain = 0
KSE2 160749Z 14010KT 24/21 A2984 RMK A01 T02440213  RH  083%=      5-min Rain = 0
KSE2 160750Z 14012KT 24/21 A2984 RMK A01 T02440213  RH  083%=      5-min Rain = 0
KSE2 160751Z 14014G23KT 24/21 A2984 RMK A01 T02430212  RH  083%=      5-min Rain = 0
KSE2 160752Z 14016KT 24/21 A2984 RMK A01 T02430213  RH  083%=      5-min Rain = 0
KSE2 160753Z 15014G19KT 24/21 A2985 RMK A01 T02430213  RH  083%=      5-min Rain = 0
KSE2 160754Z 14012KT 24/21 A2985 RMK A01 T02430213  RH  083%=      5-min Rain = 0
KSE2 160755Z 14012KT 24/21 A2985 RMK A01 T02430213  RH  083%=      5-min Rain = 0
KSE2 160756Z 14011G16KT 24/21 A2985 RMK A01 T02430213  RH  083%=      5-min Rain = 0
KSE2 160757Z 14009G16KT 24/21 A2985 RMK A01 T02430213  RH  083%=      5-min Rain = 0
KSE2 160758Z 16012G17KT 24/21 A2985 RMK A01 T02430212  RH  083%=      5-min Rain = 0
KSE2 160759Z 16006KT 24/21 A2986 RMK A01 T02430212  RH  083%=      5-min Rain = 0
KSE2 160800Z 17007G12KT 24/21 A2986 RMK A01 T02430212  RH  083%=      5-min Rain = 0
KSE2 160801Z 17007KT 24/21 A2986 RMK A01 T02420212  RH  083%=      5-min Rain = 0
KSE2 160802Z 18008KT 24/21 A2987 RMK A01 T02420212  RH  083%=      5-min Rain = 0
KSE2 160803Z 17005KT 24/21 A2987 RMK A01 T02420212  RH  083%=      5-min Rain = 0
KSE2 160804Z 17009KT 24/21 A2987 RMK A01 T02420212  RH  083%=      5-min Rain = 0
KSE2 160805Z 16009KT 24/21 A2987 RMK A01 T02420212  RH  083%=      5-min Rain = 0
KSE2 160806Z 17005KT 24/21 A2987 RMK A01 T02420212  RH  083%=      5-min Rain = 0
KSE2 160807Z 17008KT 24/21 A2987 RMK A01 T02420212  RH  083%=      5-min Rain = 0
KSE2 160808Z 15009G17KT 24/21 A2987 RMK A01 T02420212  RH  083%=      5-min Rain = 0
KSE2 160809Z 16015KT 24/21 A2987 RMK A01 T02410212  RH  084%=      5-min Rain = 0
KSE2 160810Z 17011KT 24/21 A2987 RMK A01 T02410212  RH  083%=      5-min Rain = 0
KSE2 160811Z 15011KT 24/21 A2986 RMK A01 T02420212  RH  083%=      5-min Rain = 0
KSE2 160812Z 15011KT 24/21 A2986 RMK A01 T02410212  RH  084%=      5-min Rain = 0
KSE2 160813Z 15013KT 24/21 A2986 RMK A01 T02410212  RH  084%=      5-min Rain = 0
KSE2 160814Z 15011KT 24/21 A2986 RMK A01 T02410212  RH  084%=      5-min Rain = 0
KSE2 160815Z 16009KT 24/21 A2986 RMK A01 T02410212  RH  084%=      5-min Rain = 0
KSE2 160816Z 14010KT 24/21 A2986 RMK A01 T02400212  RH  084%=      5-min Rain = 0
KSE2 160817Z 16014KT 24/21 A2986 RMK A01 T02400212  RH  085%=      5-min Rain = 0
KSE2 160818Z 16011KT 24/21 A2986 RMK A01 T02400212  RH  085%=      5-min Rain = 0
KSE2 160819Z 16012KT 24/21 A2986 RMK A01 T02400212  RH  085%=      5-min Rain = 0
KSE2 160820Z 16013KT 24/21 A2986 RMK A01 T02400212  RH  085%=      5-min Rain = 0
KSE2 160821Z 17014KT 24/21 A2987 RMK A01 T02400212  RH  085%=      5-min Rain = 0
KSE2 160822Z 15014G19KT 24/21 A2987 RMK A01 T02390212  RH  085%=      5-min Rain = 0
KSE2 160823Z 16012KT 24/21 A2986 RMK A01 T02400212  RH  085%=      5-min Rain = 0
KSE2 160824Z 15011KT 24/21 A2986 RMK A01 T02400212  RH  085%=      5-min Rain = 0
KSE2 160825Z 15011KT 24/21 A2986 RMK A01 T02390212  RH  085%=      5-min Rain = 0
KSE2 160826Z 15013G19KT 24/21 A2986 RMK A01 T02390213  RH  085%=      5-min Rain = 0
KSE2 160827Z 16014KT 24/21 A2986 RMK A01 T02390213  RH  085%=      5-min Rain = 0
KSE2 160828Z 15012KT 24/21 A2986 RMK A01 T02390212  RH  085%=      5-min Rain = 0
KSE2 160829Z 16012KT 24/21 A2986 RMK A01 T02390212  RH  085%=      5-min Rain = 0
KSE2 160830Z 16007KT 24/21 A2986 RMK A01 T02390212  RH  085%=      5-min Rain = 0
KSE2 160831Z 16011KT 24/21 A2987 RMK A01 T02380212  RH  085%=      5-min Rain = 0
KSE2 160832Z 17008KT 24/21 A2987 RMK A01 T02380212  RH  085%=      5-min Rain = 0
KSE2 160833Z 15011G17KT 24/21 A2987 RMK A01 T02380212  RH  086%=      5-min Rain = 0
KSE2 160834Z 15016G21KT 24/21 A2987 RMK A01 T02370212  RH  086%=      5-min Rain = 0
KSE2 160835Z 16013KT 24/21 A2987 RMK A01 T02370211  RH  085%=      5-min Rain = 0
KSE2 160836Z 17011KT 24/21 A2987 RMK A01 T02380212  RH  085%=      5-min Rain = 0
KSE2 160837Z 17014G19KT 24/21 A2987 RMK A01 T02380212  RH  085%=      5-min Rain = 0
KSE2 160838Z 17012KT 24/21 A2987 RMK A01 T02380212  RH  085%=      5-min Rain = 0
KSE2 160839Z 17013KT 24/21 A2987 RMK A01 T02380211  RH  085%=      5-min Rain = 0
KSE2 160840Z 16012KT 24/21 A2987 RMK A01 T02380211  RH  085%=      5-min Rain = 0
KSE2 160841Z 16013KT 24/21 A2987 RMK A01 T02380211  RH  085%=      5-min Rain = 0
KSE2 160842Z 16011KT 24/21 A2987 RMK A01 T02380211  RH  085%=      5-min Rain = 0
KSE2 160843Z 16013G18KT 24/21 A2987 RMK A01 T02370211  RH  085%=      5-min Rain = 0
KSE2 160844Z 16012G19KT 24/21 A2987 RMK A01 T02370211  RH  085%=      5-min Rain = 0
KSE2 160845Z 16013G21KT 24/21 A2987 RMK A01 T02370211  RH  085%=      5-min Rain = 0
KSE2 160846Z 16012G17KT 24/21 A2987 RMK A01 T02370211  RH  085%=      5-min Rain = 0
KSE2 160847Z 16011G16KT 24/21 A2987 RMK A01 T02360210  RH  085%=      5-min Rain = 0
KSE2 160848Z 17011G16KT 24/21 A2987 RMK A01 T02360210  RH  085%=      5-min Rain = 0
KSE2 160849Z 17010KT 24/21 A2987 RMK A01 T02360210  RH  085%=      5-min Rain = 0
KSE2 160850Z 17012G17KT 24/21 A2987 RMK A01 T02360210  RH  085%=      5-min Rain = 0
KSE2 160851Z 16011KT 24/21 A2987 RMK A01 T02360210  RH  085%=      5-min Rain = 0
KSE2 160852Z 17012G18KT 24/21 A2987 RMK A01 T02360210  RH  085%=      5-min Rain = 0
KSE2 160853Z 16013KT 24/21 A2987 RMK A01 T02360210  RH  085%=      5-min Rain = 0
KSE2 160854Z 17014G20KT 24/21 A2987 RMK A01 T02360209  RH  085%=      5-min Rain = 0
KSE2 160855Z 16013KT 24/21 A2987 RMK A01 T02360209  RH  085%=      5-min Rain = 0
KSE2 160856Z 16013KT 24/21 A2987 RMK A01 T02360210  RH  085%=      5-min Rain = 0
KSE2 160857Z 16017KT 24/21 A2987 RMK A01 T02360209  RH  085%=      5-min Rain = 0
KSE2 160858Z 16014KT 24/21 A2987 RMK A01 T02370210  RH  085%=      5-min Rain = 0
KSE2 160859Z 16013KT 24/21 A2987 RMK A01 T02370210  RH  085%=      5-min Rain = 0
KSE2 160900Z 16012KT 24/21 A2987 RMK A01 T02370210  RH  085%=      5-min Rain = 0
KSE2 160901Z 16015KT 24/21 A2987 RMK A01 T02370210  RH  085%=      5-min Rain = 0
KSE2 160902Z 16013G19KT 24/21 A2987 RMK A01 T02370210  RH  085%=      5-min Rain = 0
KSE2 160903Z 16011KT 24/21 A2987 RMK A01 T02370210  RH  085%=      5-min Rain = 0
KSE2 160904Z 15013KT 24/21 A2987 RMK A01 T02370210  RH  085%=      5-min Rain = 0
KSE2 160905Z 15011G16KT 24/21 A2987 RMK A01 T02370210  RH  085%=      5-min Rain = 0
KSE2 160906Z 16009G14KT 24/21 A2987 RMK A01 T02370210  RH  085%=      5-min Rain = 0
KSE2 160907Z 16012G17KT 24/21 A2986 RMK A01 T02370211  RH  085%=      5-min Rain = 0
KSE2 160908Z 16012G18KT 24/21 A2986 RMK A01 T02370210  RH  085%=      5-min Rain = 0
KSE2 160909Z 16012KT 24/21 A2986 RMK A01 T02370210  RH  085%=      5-min Rain = 0
KSE2 160910Z 16012KT 24/21 A2986 RMK A01 T02370211  RH  085%=      5-min Rain = 0
KSE2 160911Z 16013KT 24/21 A2986 RMK A01 T02370210  RH  085%=      5-min Rain = 0
KSE2 160912Z 16010KT 24/21 A2987 RMK A01 T02370210  RH  085%=      5-min Rain = 0
KSE2 160913Z 17013KT 24/21 A2987 RMK A01 T02370210  RH  085%=      5-min Rain = 0
KSE2 160914Z 16013G21KT 24/21 A2986 RMK A01 T02370211  RH  085%=      5-min Rain = 0
KSE2 160915Z 16012G17KT 24/21 A2987 RMK A01 T02370210  RH  085%=      5-min Rain = 0
KSE2 160916Z 17012KT 24/21 A2987 RMK A01 T02370210  RH  085%=      5-min Rain = 0
KSE2 160917Z 16011KT 24/21 A2987 RMK A01 T02370210  RH  085%=      5-min Rain = 0
KSE2 160918Z 16010KT 24/21 A2986 RMK A01 T02370210  RH  085%=      5-min Rain = 0
KSE2 160919Z 16011KT 24/21 A2986 RMK A01 T02370210  RH  085%=      5-min Rain = 0
KSE2 160920Z 16009G18KT 24/21 A2986 RMK A01 T02370210  RH  085%=      5-min Rain = 0
KSE2 160921Z 16012G19KT 24/21 A2986 RMK A01 T02370210  RH  085%=      5-min Rain = 0
KSE2 160922Z 16014G19KT 24/21 A2986 RMK A01 T02370210  RH  085%=      5-min Rain = 0
KSE2 160923Z 15015KT 24/21 A2986 RMK A01 T02370210  RH  085%=      5-min Rain = 0
KSE2 160924Z 15014G19KT 24/21 A2986 RMK A01 T02370210  RH  085%=      5-min Rain = 0
KSE2 160925Z 16016G21KT 24/21 A2986 RMK A01 T02370210  RH  085%=      5-min Rain = 0
KSE2 160926Z 16018G25KT 24/21 A2986 RMK A01 T02370209  RH  085%=      5-min Rain = 0
KSE2 160927Z 16013KT 24/21 A2986 RMK A01 T02370209  RH  084%=      5-min Rain = 0
KSE2 160928Z 17014G20KT 24/21 A2986 RMK A01 T02370209  RH  084%=      5-min Rain = 0
KSE2 160929Z 16013KT 24/21 A2986 RMK A01 T02370209  RH  085%=      5-min Rain = 0
KSE2 160930Z 17012KT 24/21 A2986 RMK A01 T02370209  RH  085%=      5-min Rain = 0
KSE2 160931Z 16013G20KT 24/21 A2986 RMK A01 T02370209  RH  085%=      5-min Rain = 0
KSE2 160932Z 17015KT 24/21 A2986 RMK A01 T02370209  RH  085%=      5-min Rain = 0
KSE2 160933Z 16015KT 24/21 A2986 RMK A01 T02370209  RH  085%=      5-min Rain = 0
KSE2 160934Z 17014G19KT 24/21 A2986 RMK A01 T02370209  RH  085%=      5-min Rain = 0
KSE2 160935Z 16010KT 24/21 A2986 RMK A01 T02370210  RH  085%=      5-min Rain = 0
KSE2 160936Z 16015G21KT 24/21 A2986 RMK A01 T02370209  RH  085%=      5-min Rain = 0
KSE2 160937Z 15013G19KT 24/21 A2986 RMK A01 T02370209  RH  085%=      5-min Rain = 0
KSE2 160938Z 15013G19KT 24/21 A2986 RMK A01 T02370209  RH  085%=      5-min Rain = 0
KSE2 160939Z 16014G21KT 24/21 A2986 RMK A01 T02360209  RH  085%=      5-min Rain = 0
KSE2 160940Z 17013G18KT 24/21 A2986 RMK A01 T02360209  RH  085%=      5-min Rain = 0
KSE2 160941Z 16017G24KT 24/21 A2986 RMK A01 T02360209  RH  085%=      5-min Rain = 0
KSE2 160942Z 16014KT 24/21 A2986 RMK A01 T02370209  RH  085%=      5-min Rain = 0
KSE2 160943Z 16012KT 24/21 A2986 RMK A01 T02360209  RH  085%=      5-min Rain = 0
KSE2 160944Z 16016G24KT 24/21 A2986 RMK A01 T02370209  RH  085%=      5-min Rain = 0
KSE2 160945Z 16017KT 24/21 A2986 RMK A01 T02360209  RH  085%=      5-min Rain = 0
KSE2 160946Z 16017G22KT 24/21 A2986 RMK A01 T02360209  RH  084%=      5-min Rain = 0
KSE2 160947Z 17011G17KT 24/21 A2986 RMK A01 T02360208  RH  085%=      5-min Rain = 0
KSE2 160948Z 16013G19KT 24/21 A2986 RMK A01 T02360209  RH  085%=      5-min Rain = 0
KSE2 160949Z 15016G21KT 24/21 A2986 RMK A01 T02360208  RH  085%=      5-min Rain = 0
KSE2 160950Z 16015G21KT 24/21 A2986 RMK A01 T02350208  RH  085%=      5-min Rain = 0
KSE2 160951Z 16015KT 24/21 A2986 RMK A01 T02350208  RH  085%=      5-min Rain = 0
KSE2 160952Z 16011G16KT 24/21 A2986 RMK A01 T02350208  RH  085%=      5-min Rain = 0
KSE2 160953Z 17014G20KT 24/21 A2986 RMK A01 T02350209  RH  085%=      5-min Rain = 0
KSE2 160954Z 16012G19KT 24/21 A2986 RMK A01 T02350208  RH  085%=      5-min Rain = 0
KSE2 160955Z 16014KT 24/21 A2986 RMK A01 T02350208  RH  085%=      5-min Rain = 0
KSE2 160956Z 16016KT 24/21 A2986 RMK A01 T02350208  RH  085%=      5-min Rain = 0
KSE2 160957Z 16016G22KT 24/21 A2986 RMK A01 T02350208  RH  085%=      5-min Rain = 0
KSE2 160958Z 16017G23KT 23/21 A2986 RMK A01 T02340208  RH  085%=      5-min Rain = 0
KSE2 160959Z 16012G18KT 24/21 A2986 RMK A01 T02350208  RH  085%=      5-min Rain = 0
KSE2 161000Z 16013G18KT 24/21 A2986 RMK A01 T02350208  RH  085%=      5-min Rain = 0
KSE2 161001Z 17012KT 23/21 A2986 RMK A01 T02340208  RH  085%=      5-min Rain = 0
KSE2 161002Z 17013G19KT 23/21 A2986 RMK A01 T02340208  RH  085%=      5-min Rain = 0
KSE2 161003Z 17010KT 23/21 A2986 RMK A01 T02340208  RH  085%=      5-min Rain = 0
KSE2 161004Z 16010G16KT 23/21 A2986 RMK A01 T02330207  RH  085%=      5-min Rain = 0
KSE2 161005Z 16012G17KT 23/21 A2986 RMK A01 T02330207  RH  085%=      5-min Rain = 0
KSE2 161006Z 16013G18KT 23/21 A2986 RMK A01 T02330207  RH  085%=      5-min Rain = 0
KSE2 161007Z 17014G20KT 23/21 A2986 RMK A01 T02330207  RH  085%=      5-min Rain = 0
KSE2 161008Z 16016KT 23/21 A2986 RMK A01 T02330207  RH  085%=      5-min Rain = 0
KSE2 161009Z 16015G20KT 23/21 A2986 RMK A01 T02330207  RH  085%=      5-min Rain = 0
KSE2 161010Z 16017G22KT 23/21 A2986 RMK A01 T02330206  RH  085%=      5-min Rain = 0
KSE2 161011Z 17011KT 23/21 A2986 RMK A01 T02330206  RH  085%=      5-min Rain = 0
KSE2 161012Z 16013G20KT 23/21 A2986 RMK A01 T02320206  RH  085%=      5-min Rain = 0
KSE2 161013Z 16014G20KT 23/21 A2986 RMK A01 T02320206  RH  085%=      5-min Rain = 0
KSE2 161014Z 16015G21KT 23/21 A2986 RMK A01 T02320206  RH  085%=      5-min Rain = 0
KSE2 161015Z 16011G18KT 23/21 A2986 RMK A01 T02320206  RH  085%=      5-min Rain = 0
KSE2 161016Z 15015KT 23/21 A2986 RMK A01 T02310205  RH  085%=      5-min Rain = 0
KSE2 161017Z 16014KT 23/21 A2986 RMK A01 T02310205  RH  085%=      5-min Rain = 0
KSE2 161018Z 16012KT 23/21 A2986 RMK A01 T02310205  RH  085%=      5-min Rain = 0
KSE2 161019Z 16013G19KT 23/21 A2986 RMK A01 T02310205  RH  085%=      5-min Rain = 0
KSE2 161020Z 16012KT 23/21 A2986 RMK A01 T02310205  RH  085%=      5-min Rain = 0
KSE2 161021Z 16013G18KT 23/20 A2986 RMK A01 T02300204  RH  085%=      5-min Rain = 0
KSE2 161022Z 16012KT 23/21 A2986 RMK A01 T02300205  RH  085%=      5-min Rain = 0
KSE2 161023Z 16010KT 23/21 A2987 RMK A01 T02310205  RH  085%=      5-min Rain = 0
KSE2 161024Z 16011G18KT 23/21 A2987 RMK A01 T02310205  RH  085%=      5-min Rain = 0
KSE2 161025Z 16016KT 23/21 A2987 RMK A01 T02310205  RH  085%=      5-min Rain = 0
KSE2 161026Z 16014G19KT 23/20 A2987 RMK A01 T02300204  RH  085%=      5-min Rain = 0
KSE2 161027Z 17013G18KT 23/20 A2987 RMK A01 T02300204  RH  085%=      5-min Rain = 0
KSE2 161028Z 17010G16KT 23/20 A2987 RMK A01 T02310204  RH  085%=      5-min Rain = 0
KSE2 161029Z 16009KT 23/20 A2987 RMK A01 T02310204  RH  085%=      5-min Rain = 0
KSE2 161030Z 17012G18KT 23/20 A2987 RMK A01 T02310204  RH  085%=      5-min Rain = 0
KSE2 161031Z 16012KT 23/20 A2987 RMK A01 T02310204  RH  085%=      5-min Rain = 0
KSE2 161032Z 16012KT 23/20 A2987 RMK A01 T02310204  RH  085%=      5-min Rain = 0
KSE2 161033Z 16012G17KT 23/20 A2987 RMK A01 T02310204  RH  085%=      5-min Rain = 0
KSE2 161034Z 17011G17KT 23/20 A2987 RMK A01 T02310204  RH  085%=      5-min Rain = 0
KSE2 161035Z 17011KT 23/21 A2987 RMK A01 T02310205  RH  085%=      5-min Rain = 0
KSE2 161036Z 16012KT 23/21 A2987 RMK A01 T02310205  RH  085%=      5-min Rain = 0
KSE2 161037Z 17012G18KT 23/20 A2987 RMK A01 T02310204  RH  085%=      5-min Rain = 0
KSE2 161038Z 17010G15KT 23/20 A2987 RMK A01 T02310204  RH  085%=      5-min Rain = 0
KSE2 161039Z 18014KT 23/21 A2987 RMK A01 T02310205  RH  085%=      5-min Rain = 0
KSE2 161040Z 16010KT 23/21 A2987 RMK A01 T02320205  RH  085%=      5-min Rain = 0
KSE2 161041Z 16009G14KT 23/21 A2987 RMK A01 T02310205  RH  085%=      5-min Rain = 0
KSE2 161042Z 18012KT 23/21 A2987 RMK A01 T02310205  RH  085%=      5-min Rain = 0
KSE2 161043Z 16011KT 23/20 A2987 RMK A01 T02310204  RH  085%=      5-min Rain = 0
KSE2 161044Z 16012G17KT 23/21 A2987 RMK A01 T02320205  RH  085%=      5-min Rain = 0
KSE2 161045Z 17014KT 23/20 A2987 RMK A01 T02310204  RH  085%=      5-min Rain = 0
KSE2 161046Z 17014KT 23/21 A2987 RMK A01 T02320205  RH  085%=      5-min Rain = 0
KSE2 161047Z 17013KT 23/21 A2987 RMK A01 T02320205  RH  085%=      5-min Rain = 0
KSE2 161048Z 17010G18KT 23/21 A2987 RMK A01 T02320205  RH  085%=      5-min Rain = 0
KSE2 161049Z 17016G21KT 23/21 A2987 RMK A01 T02320205  RH  085%=      5-min Rain = 0
KSE2 161050Z 16015G21KT 23/21 A2987 RMK A01 T02320205  RH  085%=      5-min Rain = 0
KSE2 161051Z 17012KT 23/21 A2987 RMK A01 T02330205  RH  085%=      5-min Rain = 0
KSE2 161052Z 18015G20KT 23/21 A2987 RMK A01 T02320205  RH  085%=      5-min Rain = 0
KSE2 161053Z 16012KT 23/21 A2988 RMK A01 T02320205  RH  085%=      5-min Rain = 0
KSE2 161054Z 17012KT 23/21 A2988 RMK A01 T02320205  RH  085%=      5-min Rain = 0
KSE2 161055Z 19013KT 23/21 A2988 RMK A01 T02320205  RH  085%=      5-min Rain = 0
KSE2 161056Z 17010KT 23/21 A2988 RMK A01 T02320205  RH  085%=      5-min Rain = 0
KSE2 161057Z 17008KT 23/21 A2988 RMK A01 T02320205  RH  085%=      5-min Rain = 0
KSE2 161058Z 16007KT 23/21 A2988 RMK A01 T02320206  RH  085%=      5-min Rain = 0
KSE2 161059Z 17009G17KT 23/21 A2988 RMK A01 T02320206  RH  085%=      5-min Rain = 0
KSE2 161100Z 17011KT 23/21 A2988 RMK A01 T02320206  RH  085%=      5-min Rain = 0
KSE2 161101Z 17013KT 23/21 A2988 RMK A01 T02320206  RH  085%=      5-min Rain = 0
KSE2 161102Z 17012G17KT 23/21 A2988 RMK A01 T02320206  RH  085%=      5-min Rain = 0
KSE2 161103Z 17012G17KT 23/21 A2988 RMK A01 T02320205  RH  085%=      5-min Rain = 0
KSE2 161104Z 17015KT 23/21 A2988 RMK A01 T02320206  RH  085%=      5-min Rain = 0
KSE2 161105Z 16012G17KT 23/21 A2988 RMK A01 T02320205  RH  085%=      5-min Rain = 0
KSE2 161106Z 16014KT 23/21 A2988 RMK A01 T02320205  RH  085%=      5-min Rain = 0
KSE2 161107Z 17014KT 23/21 A2988 RMK A01 T02330206  RH  085%=      5-min Rain = 0
KSE2 161108Z 17014G19KT 23/21 A2988 RMK A01 T02330206  RH  085%=      5-min Rain = 0
KSE2 161109Z 18015KT 23/21 A2988 RMK A01 T02330206  RH  085%=      5-min Rain = 0
KSE2 161110Z 18014KT 23/21 A2988 RMK A01 T02330206  RH  085%=      5-min Rain = 0
KSE2 161111Z 17009G14KT 23/21 A2988 RMK A01 T02330206  RH  085%=      5-min Rain = 0
KSE2 161112Z 17010KT 23/21 A2988 RMK A01 T02330206  RH  085%=      5-min Rain = 0
KSE2 161113Z 17007G12KT 23/21 A2988 RMK A01 T02330206  RH  085%=      5-min Rain = 0
KSE2 161114Z 17009G14KT 23/21 A2989 RMK A01 T02330207  RH  085%=      5-min Rain = 0
KSE2 161115Z 16012G17KT 23/21 A2989 RMK A01 T02330207  RH  085%=      5-min Rain = 0
KSE2 161116Z 18014G19KT 23/21 A2989 RMK A01 T02330206  RH  085%=      5-min Rain = 0
KSE2 161117Z 18008G14KT 23/21 A2989 RMK A01 T02330206  RH  085%=      5-min Rain = 0
KSE2 161118Z 17010G15KT 23/21 A2989 RMK A01 T02330207  RH  085%=      5-min Rain = 0
KSE2 161119Z 17008G13KT 23/21 A2989 RMK A01 T02330207  RH  085%=      5-min Rain = 0
KSE2 161120Z 17009KT 23/21 A2989 RMK A01 T02330207  RH  085%=      5-min Rain = 0
KSE2 161121Z 17009KT 23/21 A2989 RMK A01 T02330207  RH  085%=      5-min Rain = 0
KSE2 161122Z 17012KT 23/21 A2989 RMK A01 T02320207  RH  085%=      5-min Rain = 0
KSE2 161123Z 17011G16KT 23/21 A2989 RMK A01 T02330207  RH  086%=      5-min Rain = 0
KSE2 161124Z 18014KT 23/21 A2989 RMK A01 T02330207  RH  085%=      5-min Rain = 0
KSE2 161125Z 18013KT 23/21 A2989 RMK A01 T02330207  RH  085%=      5-min Rain = 0
KSE2 161126Z 17012G17KT 23/21 A2989 RMK A01 T02330207  RH  085%=      5-min Rain = 0
KSE2 161127Z 18010KT 23/21 A2989 RMK A01 T02330207  RH  085%=      5-min Rain = 0
KSE2 161128Z 18011KT 23/21 A2989 RMK A01 T02330207  RH  085%=      5-min Rain = 0
KSE2 161129Z 17011KT 23/21 A2989 RMK A01 T02330207  RH  085%=      5-min Rain = 0
KSE2 161130Z 17011KT 23/21 A2989 RMK A01 T02330207  RH  086%=      5-min Rain = 0
KSE2 161131Z 17012KT 23/21 A2989 RMK A01 T02330207  RH  085%=      5-min Rain = 0
KSE2 161132Z 16009KT 23/21 A2989 RMK A01 T02330207  RH  086%=      5-min Rain = 0
KSE2 161133Z 17009G14KT 23/21 A2989 RMK A01 T02330207  RH  086%=      5-min Rain = 0
KSE2 161134Z 17013KT 23/21 A2989 RMK A01 T02330207  RH  086%=      5-min Rain = 0
KSE2 161135Z 17011KT 23/21 A2989 RMK A01 T02330207  RH  085%=      5-min Rain = 0
KSE2 161136Z 18010KT 23/21 A2989 RMK A01 T02330206  RH  085%=      5-min Rain = 0
KSE2 161137Z 18013KT 23/21 A2989 RMK A01 T02330206  RH  085%=      5-min Rain = 0
KSE2 161138Z 17010G15KT 23/21 A2989 RMK A01 T02330206  RH  085%=      5-min Rain = 0
KSE2 161139Z 17009KT 23/21 A299 RMK A01 T02330206  RH  085%=      5-min Rain = 0
KSE2 161140Z 17010KT 23/21 A299 RMK A01 T02330206  RH  085%=      5-min Rain = 0
KSE2 161141Z 17009KT 23/21 A299 RMK A01 T02330206  RH  085%=      5-min Rain = 0
KSE2 161142Z 17009KT 23/21 A299 RMK A01 T02330207  RH  085%=      5-min Rain = 0
KSE2 161143Z 17011KT 23/21 A299 RMK A01 T02330206  RH  085%=      5-min Rain = 0
KSE2 161144Z 18014G19KT 23/21 A299 RMK A01 T02330206  RH  085%=      5-min Rain = 0
KSE2 161145Z 17013G19KT 23/21 A299 RMK A01 T02330205  RH  084%=      5-min Rain = 0
KSE2 161146Z 18012KT 23/20 A299 RMK A01 T02330204  RH  084%=      5-min Rain = 0
KSE2 161147Z 18012KT 23/20 A299 RMK A01 T02330204  RH  084%=      5-min Rain = 0
KSE2 161148Z 17010KT 23/20 A299 RMK A01 T02330204  RH  084%=      5-min Rain = 0
KSE2 161149Z 17009G16KT 23/20 A299 RMK A01 T02330204  RH  084%=      5-min Rain = 0
KSE2 161150Z 18013G22KT 23/20 A299 RMK A01 T02330203  RH  083%=      5-min Rain = 0
KSE2 161151Z 16009KT 23/20 A299 RMK A01 T02330203  RH  083%=      5-min Rain = 0
KSE2 161152Z 17016KT 23/20 A299 RMK A01 T02330202  RH  083%=      5-min Rain = 0
KSE2 161153Z 17013KT 23/20 A299 RMK A01 T02330201  RH  082%=      5-min Rain = 0
KSE2 161154Z 17009G15KT 23/20 A299 RMK A01 T02330202  RH  083%=      5-min Rain = 0
KSE2 161155Z 17010G16KT 23/20 A299 RMK A01 T02330202  RH  083%=      5-min Rain = 0
KSE2 161156Z 17013G19KT 23/20 A299 RMK A01 T02330202  RH  083%=      5-min Rain = 0
KSE2 161157Z 17010KT 23/20 A2991 RMK A01 T02330201  RH  082%=      5-min Rain = 0
KSE2 161158Z 17013KT 23/20 A2991 RMK A01 T02330201  RH  082%=      5-min Rain = 0
KSE2 161159Z 17011KT 23/20 A2991 RMK A01 T02330201  RH  082%=      5-min Rain = 0
KSE2 161200Z 18010KT 23/20 A2991 RMK A01 T02330201  RH  082%=      5-min Rain = 0
KSE2 161201Z 17010KT 23/20 A2991 RMK A01 T02330201  RH  083%=      5-min Rain = 0
KSE2 161202Z 17011G16KT 23/20 A2991 RMK A01 T02320201  RH  083%=      5-min Rain = 0
KSE2 161203Z 18010G15KT 23/20 A2991 RMK A01 T02320202  RH  083%=      5-min Rain = 0
KSE2 161204Z 18013KT 23/20 A2991 RMK A01 T02320202  RH  083%=      5-min Rain = 0
KSE2 161205Z 16011G17KT 23/20 A2991 RMK A01 T02320201  RH  083%=      5-min Rain = 0
KSE2 161206Z 17009KT 23/20 A2991 RMK A01 T02320202  RH  083%=      5-min Rain = 0
KSE2 161207Z 18014KT 23/20 A2991 RMK A01 T02320202  RH  083%=      5-min Rain = 0
KSE2 161208Z 18009KT 23/20 A2991 RMK A01 T02320201  RH  083%=      5-min Rain = 0
KSE2 161209Z 18010G16KT 23/20 A2991 RMK A01 T02320202  RH  083%=      5-min Rain = 0
KSE2 161210Z 17011KT 23/20 A2991 RMK A01 T02320201  RH  083%=      5-min Rain = 0
KSE2 161211Z 17012G18KT 23/20 A2991 RMK A01 T02320201  RH  083%=      5-min Rain = 0
KSE2 161212Z 18012KT 23/20 A2991 RMK A01 T02320201  RH  083%=      5-min Rain = 0
KSE2 161213Z 18011G16KT 23/20 A2991 RMK A01 T02320200  RH  082%=      5-min Rain = 0
KSE2 161214Z 18011KT 23/20 A2991 RMK A01 T02320200  RH  082%=      5-min Rain = 0
KSE2 161215Z 17012KT 23/20 A2991 RMK A01 T02320200  RH  082%=      5-min Rain = 0
KSE2 161216Z 17012KT 23/20 A2991 RMK A01 T02320200  RH  082%=      5-min Rain = 0
KSE2 161217Z 18010KT 23/20 A2991 RMK A01 T02320200  RH  082%=      5-min Rain = 0
KSE2 161218Z 17010KT 23/20 A2991 RMK A01 T02320200  RH  082%=      5-min Rain = 0
KSE2 161219Z 18011G17KT 23/20 A2991 RMK A01 T02320200  RH  082%=      5-min Rain = 0
KSE2 161220Z 18011KT 23/20 A2991 RMK A01 T02320200  RH  082%=      5-min Rain = 0
KSE2 161221Z 18012KT 23/20 A2991 RMK A01 T02320200  RH  083%=      5-min Rain = 0
KSE2 161222Z 17013G18KT 23/20 A2991 RMK A01 T02320200  RH  083%=      5-min Rain = 0
KSE2 161223Z 18011G16KT 23/20 A2991 RMK A01 T02320201  RH  083%=      5-min Rain = 0
KSE2 161224Z 17008KT 23/20 A2991 RMK A01 T02320201  RH  083%=      5-min Rain = 0
KSE2 161225Z 18010G15KT 23/20 A2991 RMK A01 T02320201  RH  083%=      5-min Rain = 0
KSE2 161226Z 19017KT 23/20 A2991 RMK A01 T02320201  RH  083%=      5-min Rain = 0
KSE2 161227Z 18014G19KT 23/20 A2991 RMK A01 T02320200  RH  082%=      5-min Rain = 0
KSE2 161228Z 18010G16KT 23/20 A2991 RMK A01 T02320200  RH  082%=      5-min Rain = 0
KSE2 161229Z 17012G17KT 23/20 A2992 RMK A01 T02320200  RH  082%=      5-min Rain = 0
KSE2 161230Z 17010KT 23/20 A2992 RMK A01 T02320201  RH  083%=      5-min Rain = 0
KSE2 161231Z 17014KT 23/20 A2992 RMK A01 T02320200  RH  083%=      5-min Rain = 0
KSE2 161232Z 17011G17KT 23/20 A2992 RMK A01 T02320201  RH  083%=      5-min Rain = 0
KSE2 161233Z 18013KT 23/20 A2992 RMK A01 T02320201  RH  083%=      5-min Rain = 0
KSE2 161234Z 18013KT 23/20 A2992 RMK A01 T02320200  RH  083%=      5-min Rain = 0
KSE2 161235Z 18015G20KT 23/20 A2992 RMK A01 T02320201  RH  083%=      5-min Rain = 0
KSE2 161236Z 18012KT 23/20 A2992 RMK A01 T02320201  RH  083%=      5-min Rain = 0
KSE2 161237Z 18013G18KT 23/20 A2992 RMK A01 T02320201  RH  083%=      5-min Rain = 0
KSE2 161238Z 18012KT 23/20 A2992 RMK A01 T02320201  RH  083%=      5-min Rain = 0
KSE2 161239Z 19012G17KT 23/20 A2992 RMK A01 T02320201  RH  083%=      5-min Rain = 0
KSE2 161240Z 19011G16KT 23/20 A2992 RMK A01 T02320201  RH  083%=      5-min Rain = 0
KSE2 161241Z 18012KT 23/20 A2992 RMK A01 T02320201  RH  083%=      5-min Rain = 0
KSE2 161242Z 17013KT 23/20 A2992 RMK A01 T02320201  RH  083%=      5-min Rain = 0
KSE2 161243Z 18013G18KT 23/20 A2992 RMK A01 T02320201  RH  083%=      5-min Rain = 0
KSE2 161244Z 17011KT 23/20 A2992 RMK A01 T02320201  RH  083%=      5-min Rain = 0
KSE2 161245Z 18009KT 23/20 A2992 RMK A01 T02320201  RH  083%=      5-min Rain = 0
KSE2 161246Z 18008G13KT 23/20 A2992 RMK A01 T02320202  RH  083%=      5-min Rain = 0
KSE2 161247Z 17011G17KT 23/20 A2992 RMK A01 T02320201  RH  083%=      5-min Rain = 0
KSE2 161248Z 17009G14KT 23/20 A2992 RMK A01 T02320201  RH  083%=      5-min Rain = 0
KSE2 161249Z 17008G13KT 23/20 A2992 RMK A01 T02320202  RH  083%=      5-min Rain = 0
KSE2 161250Z 18013KT 23/20 A2992 RMK A01 T02320202  RH  083%=      5-min Rain = 0
KSE2 161251Z 18013G19KT 23/20 A2992 RMK A01 T02320201  RH  083%=      5-min Rain = 0
KSE2 161252Z 17011KT 23/20 A2992 RMK A01 T02320201  RH  083%=      5-min Rain = 0
KSE2 161253Z 17017KT 23/20 A2992 RMK A01 T02320201  RH  083%=      5-min Rain = 0
KSE2 161254Z 18015G20KT 23/20 A2992 RMK A01 T02320201  RH  083%=      5-min Rain = 0
KSE2 161255Z 17011G18KT 23/20 A2992 RMK A01 T02320201  RH  083%=      5-min Rain = 0
KSE2 161256Z 18013G18KT 23/20 A2992 RMK A01 T02320202  RH  083%=      5-min Rain = 0
KSE2 161257Z 17011KT 23/20 A2992 RMK A01 T02320201  RH  083%=      5-min Rain = 0
KSE2 161258Z 18017G23KT 23/20 A2992 RMK A01 T02320201  RH  083%=      5-min Rain = 0
KSE2 161259Z 18014KT 23/20 A2992 RMK A01 T02320201  RH  083%=      5-min Rain = 0
KSE2 161300Z 17014G20KT 23/20 A2992 RMK A01 T02320201  RH  083%=      5-min Rain = 0
KSE2 161301Z 18017G22KT 23/20 A2992 RMK A01 T02320201  RH  083%=      5-min Rain = 0
KSE2 161302Z 17014KT 23/20 A2992 RMK A01 T02320201  RH  083%=      5-min Rain = 0
KSE2 161303Z 17015KT 23/20 A2992 RMK A01 T02320201  RH  083%=      5-min Rain = 0
KSE2 161304Z 17011G17KT 23/20 A2992 RMK A01 T02320201  RH  083%=      5-min Rain = 0
KSE2 161305Z 17010KT 23/20 A2992 RMK A01 T02320201  RH  083%=      5-min Rain = 0
KSE2 161306Z 17012G19KT 23/20 A2992 RMK A01 T02320202  RH  083%=      5-min Rain = 0
KSE2 161307Z 17019KT 23/20 A2992 RMK A01 T02320201  RH  083%=      5-min Rain = 0
KSE2 161308Z 17015KT 23/20 A2992 RMK A01 T02320201  RH  083%=      5-min Rain = 0
KSE2 161309Z 17013G22KT 23/20 A2992 RMK A01 T02320201  RH  083%=      5-min Rain = 0
KSE2 161310Z 17013KT 23/20 A2992 RMK A01 T02320202  RH  083%=      5-min Rain = 0
KSE2 161311Z 16013G18KT 23/20 A2992 RMK A01 T02320202  RH  083%=      5-min Rain = 0
KSE2 161312Z 17014G20KT 23/20 A2992 RMK A01 T02320202  RH  083%=      5-min Rain = 0
KSE2 161313Z 17011G16KT 23/20 A2992 RMK A01 T02320203  RH  083%=      5-min Rain = 0
KSE2 161314Z 16011G18KT 23/20 A2992 RMK A01 T02320202  RH  083%=      5-min Rain = 0
KSE2 161315Z 17013KT 23/20 A2992 RMK A01 T02320203  RH  083%=      5-min Rain = 0
KSE2 161316Z 17017KT 23/20 A2992 RMK A01 T02320203  RH  083%=      5-min Rain = 0
KSE2 161317Z 17012G17KT 23/20 A2992 RMK A01 T02320203  RH  084%=      5-min Rain = 0
KSE2 161318Z 17009KT 23/20 A2992 RMK A01 T02320203  RH  084%=      5-min Rain = 0
KSE2 161319Z 16012G19KT 23/20 A2992 RMK A01 T02320203  RH  084%=      5-min Rain = 0
KSE2 161320Z 17011G17KT 23/20 A2992 RMK A01 T02320203  RH  084%=      5-min Rain = 0
KSE2 161321Z 17010G15KT 23/20 A2992 RMK A01 T02320203  RH  084%=      5-min Rain = 0
KSE2 161322Z 17009G15KT 23/20 A2992 RMK A01 T02320203  RH  084%=      5-min Rain = 0
KSE2 161323Z 17014G19KT 23/20 A2992 RMK A01 T02320203  RH  084%=      5-min Rain = 0
KSE2 161324Z 17012KT 23/20 A2992 RMK A01 T02320203  RH  084%=      5-min Rain = 0
KSE2 161325Z 17011KT 23/20 A2992 RMK A01 T02320203  RH  084%=      5-min Rain = 0
KSE2 161326Z 17011G17KT 23/20 A2992 RMK A01 T02320204  RH  084%=      5-min Rain = 0
KSE2 161327Z 16013G18KT 23/20 A2992 RMK A01 T02320204  RH  084%=      5-min Rain = 0
KSE2 161328Z 18010KT 23/20 A2992 RMK A01 T02320203  RH  084%=      5-min Rain = 0
KSE2 161329Z 17009KT 23/20 A2992 RMK A01 T02320204  RH  084%=      5-min Rain = 0
KSE2 161330Z 18011KT 23/20 A2992 RMK A01 T02320204  RH  084%=      5-min Rain = 0
KSE2 161331Z 17010G16KT 23/20 A2992 RMK A01 T02320204  RH  084%=      5-min Rain = 0
KSE2 161332Z 17011G17KT 23/20 A2992 RMK A01 T02320204  RH  084%=      5-min Rain = 0
KSE2 161333Z 18011KT 23/21 A2992 RMK A01 T02320205  RH  084%=      5-min Rain = 0
KSE2 161334Z 18012KT 23/21 A2992 RMK A01 T02320205  RH  084%=      5-min Rain = 0
KSE2 161335Z 17009G14KT 23/21 A2992 RMK A01 T02320205  RH  084%=      5-min Rain = 0
KSE2 161336Z 18011G16KT 23/21 A2992 RMK A01 T02320205  RH  085%=      5-min Rain = 0
KSE2 161337Z 18013KT 23/21 A2993 RMK A01 T02320205  RH  085%=      5-min Rain = 0
KSE2 161338Z 18009KT 23/21 A2993 RMK A01 T02320205  RH  085%=      5-min Rain = 0
KSE2 161339Z 18009KT 23/21 A2993 RMK A01 T02320205  RH  085%=      5-min Rain = 0
KSE2 161340Z 18010G16KT 23/21 A2993 RMK A01 T02320205  RH  085%=      5-min Rain = 0
KSE2 161341Z 17011G18KT 23/21 A2993 RMK A01 T02320205  RH  085%=      5-min Rain = 0
KSE2 161342Z 17010KT 23/21 A2993 RMK A01 T02320205  RH  085%=      5-min Rain = 0
KSE2 161343Z 17014G20KT 23/21 A2993 RMK A01 T02320205  RH  085%=      5-min Rain = 0
KSE2 161344Z 17013KT 23/21 A2993 RMK A01 T02320205  RH  084%=      5-min Rain = 0
KSE2 161345Z 17012G17KT 23/21 A2993 RMK A01 T02320205  RH  084%=      5-min Rain = 0
KSE2 161346Z 18013KT 23/20 A2993 RMK A01 T02320204  RH  084%=      5-min Rain = 0
KSE2 161347Z 18010G17KT 23/21 A2993 RMK A01 T02320205  RH  084%=      5-min Rain = 0
KSE2 161348Z 18009KT 23/21 A2993 RMK A01 T02330206  RH  085%=      5-min Rain = 0
KSE2 161349Z 18012G19KT 23/21 A2993 RMK A01 T02330206  RH  085%=      5-min Rain = 0
KSE2 161350Z 17014KT 23/21 A2993 RMK A01 T02330205  RH  084%=      5-min Rain = 0
KSE2 161351Z 18012KT 23/21 A2993 RMK A01 T02330205  RH  084%=      5-min Rain = 0
KSE2 161352Z 18011G18KT 23/21 A2993 RMK A01 T02330205  RH  085%=      5-min Rain = 0
KSE2 161353Z 18014KT 23/21 A2993 RMK A01 T02330205  RH  084%=      5-min Rain = 0
KSE2 161354Z 19014KT 23/21 A2993 RMK A01 T02330205  RH  084%=      5-min Rain = 0
KSE2 161355Z 19012G18KT 23/21 A2993 RMK A01 T02330205  RH  084%=      5-min Rain = 0
KSE2 161356Z 18011G16KT 23/21 A2993 RMK A01 T02330205  RH  084%=      5-min Rain = 0
KSE2 161357Z 19012KT 23/21 A2993 RMK A01 T02330205  RH  084%=      5-min Rain = 0
KSE2 161358Z 18010G15KT 23/21 A2993 RMK A01 T02330205  RH  084%=      5-min Rain = 0
KSE2 161359Z 18013KT 23/21 A2993 RMK A01 T02330205  RH  084%=      5-min Rain = 0
KSE2 161400Z 18012KT 23/21 A2993 RMK A01 T02330205  RH  084%=      5-min Rain = 0
KSE2 161401Z 18010G16KT 23/21 A2994 RMK A01 T02330205  RH  084%=      5-min Rain = 0
KSE2 161402Z 16010G15KT 23/21 A2993 RMK A01 T02330205  RH  084%=      5-min Rain = 0
KSE2 161403Z 17012G17KT 23/21 A2993 RMK A01 T02330205  RH  084%=      5-min Rain = 0
KSE2 161404Z 17011G17KT 23/21 A2993 RMK A01 T02330205  RH  084%=      5-min Rain = 0
KSE2 161405Z 17014G20KT 23/21 A2993 RMK A01 T02330205  RH  084%=      5-min Rain = 0
KSE2 161406Z 18013G19KT 23/21 A2993 RMK A01 T02340205  RH  084%=      5-min Rain = 0
KSE2 161407Z 17012G18KT 23/21 A2993 RMK A01 T02340205  RH  084%=      5-min Rain = 0
KSE2 161408Z 17013G20KT 23/21 A2993 RMK A01 T02340205  RH  084%=      5-min Rain = 0
KSE2 161409Z 17012G17KT 23/21 A2993 RMK A01 T02340205  RH  084%=      5-min Rain = 0
KSE2 161410Z 17011KT 23/21 A2993 RMK A01 T02340205  RH  084%=      5-min Rain = 0
KSE2 161411Z 17013G19KT 23/21 A2993 RMK A01 T02340205  RH  084%=      5-min Rain = 0
KSE2 161412Z 18015G21KT 23/21 A2993 RMK A01 T02340205  RH  084%=      5-min Rain = 0
KSE2 161413Z 18015G21KT 23/21 A2993 RMK A01 T02340205  RH  084%=      5-min Rain = 0
KSE2 161414Z 18011G17KT 23/21 A2993 RMK A01 T02340205  RH  084%=      5-min Rain = 0
KSE2 161415Z 18011G18KT 23/21 A2993 RMK A01 T02340205  RH  084%=      5-min Rain = 0
KSE2 161416Z 17013KT 23/21 A2993 RMK A01 T02340206  RH  084%=      5-min Rain = 0
KSE2 161417Z 16010KT 23/21 A2993 RMK A01 T02340206  RH  084%=      5-min Rain = 0
KSE2 161418Z 17015G21KT 23/21 A2993 RMK A01 T02340206  RH  084%=      5-min Rain = 0
KSE2 161419Z 18014G21KT 24/21 A2993 RMK A01 T02350206  RH  084%=      5-min Rain = 0
KSE2 161420Z 18011KT 24/21 A2993 RMK A01 T02350206  RH  084%=      5-min Rain = 0
KSE2 161421Z 17010KT 24/21 A2993 RMK A01 T02350207  RH  084%=      5-min Rain = 0
KSE2 161422Z 17011G16KT 24/21 A2993 RMK A01 T02350207  RH  084%=      5-min Rain = 0
KSE2 161423Z 18013KT 24/21 A2993 RMK A01 T02350206  RH  084%=      5-min Rain = 0
KSE2 161424Z 17009KT 24/21 A2993 RMK A01 T02350206  RH  084%=      5-min Rain = 0
KSE2 161425Z 18011KT 24/21 A2993 RMK A01 T02350206  RH  084%=      5-min Rain = 0
KSE2 161426Z 17007KT 24/21 A2993 RMK A01 T02350207  RH  084%=      5-min Rain = 0
KSE2 161427Z 17009G15KT 24/21 A2993 RMK A01 T02360208  RH  084%=      5-min Rain = 0
KSE2 161428Z 17012G17KT 24/21 A2993 RMK A01 T02360207  RH  084%=      5-min Rain = 0
KSE2 161429Z 18011G17KT 24/21 A2993 RMK A01 T02360207  RH  084%=      5-min Rain = 0
KSE2 161430Z 18012G18KT 24/21 A2993 RMK A01 T02360207  RH  084%=      5-min Rain = 0
KSE2 161431Z 18010G15KT 24/21 A2993 RMK A01 T02360207  RH  084%=      5-min Rain = 0
KSE2 161432Z 18011KT 24/21 A2993 RMK A01 T02360208  RH  084%=      5-min Rain = 0
KSE2 161433Z 18012G18KT 24/21 A2993 RMK A01 T02360207  RH  084%=      5-min Rain = 0
KSE2 161434Z 18012KT 24/21 A2993 RMK A01 T02350207  RH  084%=      5-min Rain = 0
KSE2 161435Z 17011KT 24/21 A2993 RMK A01 T02360208  RH  084%=      5-min Rain = 0
KSE2 161436Z 18010G15KT 24/21 A2993 RMK A01 T02350208  RH  084%=      5-min Rain = 0
KSE2 161437Z 17012KT 24/21 A2993 RMK A01 T02350208  RH  085%=      5-min Rain = 0
KSE2 161438Z 17010KT 24/21 A2993 RMK A01 T02350208  RH  084%=      5-min Rain = 0
KSE2 161439Z 18012G17KT 24/21 A2993 RMK A01 T02350208  RH  085%=      5-min Rain = 0
KSE2 161440Z 18011KT 24/21 A2993 RMK A01 T02350208  RH  084%=      5-min Rain = 0
KSE2 161441Z 17009G15KT 24/21 A2993 RMK A01 T02350208  RH  085%=      5-min Rain = 0
KSE2 161442Z 18008G14KT 24/21 A2993 RMK A01 T02350208  RH  085%=      5-min Rain = 0
KSE2 161443Z 18009G14KT 24/21 A2993 RMK A01 T02350209  RH  085%=      5-min Rain = 0
KSE2 161444Z 18007KT 24/21 A2993 RMK A01 T02350208  RH  085%=      5-min Rain = 0
KSE2 161445Z 17009KT 24/21 A2993 RMK A01 T02350208  RH  085%=      5-min Rain = 0
KSE2 161446Z 19007KT 24/21 A2994 RMK A01 T02350208  RH  085%=      5-min Rain = 0
KSE2 161447Z 18007KT 24/21 A2994 RMK A01 T02350209  RH  085%=      5-min Rain = 0
KSE2 161448Z 18008G14KT 24/21 A2994 RMK A01 T02350209  RH  085%=      5-min Rain = 0
KSE2 161449Z 18011G17KT 24/21 A2994 RMK A01 T02350208  RH  085%=      5-min Rain = 0
KSE2 161450Z 19009G14KT 24/21 A2994 RMK A01 T02350209  RH  085%=      5-min Rain = 0
KSE2 161451Z 19012G17KT 24/21 A2994 RMK A01 T02350209  RH  085%=      5-min Rain = 0
KSE2 161452Z 19011KT 24/21 A2994 RMK A01 T02350209  RH  085%=      5-min Rain = 0
KSE2 161453Z 18010KT 24/21 A2994 RMK A01 T02360209  RH  085%=      5-min Rain = 0
KSE2 161454Z 18011KT 24/21 A2994 RMK A01 T02360209  RH  085%=      5-min Rain = 0
KSE2 161455Z 17010KT 24/21 A2994 RMK A01 T02360209  RH  085%=      5-min Rain = 0
KSE2 161456Z 17008KT 24/21 A2994 RMK A01 T02350209  RH  085%=      5-min Rain = 0
KSE2 161457Z 17013KT 24/21 A2994 RMK A01 T02350209  RH  085%=      5-min Rain = 0
KSE2 161458Z 17011G16KT 24/21 A2994 RMK A01 T02360209  RH  085%=      5-min Rain = 0
KSE2 161459Z 17011KT 24/21 A2994 RMK A01 T02360209  RH  085%=      5-min Rain = 0
KSE2 161500Z 17010KT 24/21 A2994 RMK A01 T02360209  RH  085%=      5-min Rain = 0
KSE2 161501Z 18010KT 24/21 A2994 RMK A01 T02360209  RH  085%=      5-min Rain = 0
KSE2 161502Z 17010G15KT 24/21 A2994 RMK A01 T02360209  RH  085%=      5-min Rain = 0
KSE2 161503Z 17011G16KT 24/21 A2994 RMK A01 T02360208  RH  085%=      5-min Rain = 0
KSE2 161504Z 17012KT 24/21 A2994 RMK A01 T02360208  RH  085%=      5-min Rain = 0
KSE2 161505Z 18014KT 24/21 A2994 RMK A01 T02350208  RH  084%=      5-min Rain = 0
KSE2 161506Z 18012KT 24/21 A2994 RMK A01 T02360208  RH  084%=      5-min Rain = 0
KSE2 161507Z 17010KT 24/21 A2994 RMK A01 T02360208  RH  084%=      5-min Rain = 0
KSE2 161508Z 18012KT 24/21 A2994 RMK A01 T02370208  RH  084%=      5-min Rain = 0
KSE2 161509Z 18009KT 24/21 A2994 RMK A01 T02370208  RH  084%=      5-min Rain = 0
KSE2 161510Z 17009G14KT 24/21 A2994 RMK A01 T02370209  RH  084%=      5-min Rain = 0
KSE2 161511Z 17007KT 24/21 A2994 RMK A01 T02370209  RH  084%=      5-min Rain = 0
KSE2 161512Z 17009KT 24/21 A2994 RMK A01 T02370209  RH  084%=      5-min Rain = 0
KSE2 161513Z 19010KT 24/21 A2994 RMK A01 T02370208  RH  084%=      5-min Rain = 0
KSE2 161514Z 19008KT 24/21 A2994 RMK A01 T02380209  RH  084%=      5-min Rain = 0
KSE2 161515Z 19009KT 24/21 A2994 RMK A01 T02370209  RH  084%=      5-min Rain = 0
KSE2 161516Z 19009KT 24/21 A2994 RMK A01 T02370209  RH  084%=      5-min Rain = 0
KSE2 161517Z 18009KT 24/21 A2994 RMK A01 T02370209  RH  084%=      5-min Rain = 0
KSE2 161518Z 17008KT 24/21 A2994 RMK A01 T02370209  RH  084%=      5-min Rain = 0
KSE2 161519Z 17010KT 24/21 A2994 RMK A01 T02370209  RH  084%=      5-min Rain = 0
KSE2 161520Z 18008KT 24/21 A2994 RMK A01 T02370209  RH  084%=      5-min Rain = 0
KSE2 161521Z 19008KT 24/21 A2994 RMK A01 T02380209  RH  084%=      5-min Rain = 0
KSE2 161522Z 17009G15KT 24/21 A2994 RMK A01 T02380209  RH  084%=      5-min Rain = 0
KSE2 161523Z 18010KT 24/21 A2994 RMK A01 T02380209  RH  084%=      5-min Rain = 0
KSE2 161524Z 19012KT 24/21 A2994 RMK A01 T02380208  RH  083%=      5-min Rain = 0
KSE2 161525Z 18012KT 24/21 A2994 RMK A01 T02380209  RH  084%=      5-min Rain = 0
KSE2 161526Z 17013KT 24/21 A2994 RMK A01 T02380209  RH  084%=      5-min Rain = 0
KSE2 161527Z 18013KT 24/21 A2994 RMK A01 T02370208  RH  084%=      5-min Rain = 0
KSE2 161528Z 18010G16KT 24/21 A2994 RMK A01 T02370208  RH  084%=      5-min Rain = 0
KSE2 161529Z 18010G16KT 24/21 A2994 RMK A01 T02370209  RH  084%=      5-min Rain = 0
KSE2 161530Z 18007G13KT 24/21 A2994 RMK A01 T02370209  RH  084%=      5-min Rain = 0
KSE2 161531Z 18012KT 24/21 A2994 RMK A01 T02370209  RH  084%=      5-min Rain = 0
KSE2 161532Z 18013KT 24/21 A2994 RMK A01 T02370208  RH  084%=      5-min Rain = 0
KSE2 161533Z 18012KT 24/21 A2994 RMK A01 T02370208  RH  084%=      5-min Rain = 0
KSE2 161534Z 19011G16KT 24/21 A2994 RMK A01 T02370209  RH  084%=      5-min Rain = 0
KSE2 161535Z 18010KT 24/21 A2994 RMK A01 T02370209  RH  084%=      5-min Rain = 0
KSE2 161536Z 18011KT 24/21 A2993 RMK A01 T02370209  RH  084%=      5-min Rain = 0
KSE2 161537Z 19014KT 24/21 A2994 RMK A01 T02370209  RH  084%=      5-min Rain = 0
KSE2 161538Z 19011KT 24/21 A2993 RMK A01 T02370209  RH  084%=      5-min Rain = 0
KSE2 161539Z 17008KT 24/21 A2994 RMK A01 T02370210  RH  084%=      5-min Rain = 0
KSE2 161540Z 18010KT 24/21 A2994 RMK A01 T02370210  RH  085%=      5-min Rain = 0
KSE2 161541Z 17007KT 24/21 A2994 RMK A01 T02380210  RH  084%=      5-min Rain = 0
KSE2 161542Z 18008KT 24/21 A2994 RMK A01 T02380210  RH  084%=      5-min Rain = 0
KSE2 161543Z 17010KT 24/21 A2994 RMK A01 T02380209  RH  084%=      5-min Rain = 0
KSE2 161544Z 18009KT 24/21 A2994 RMK A01 T02380209  RH  084%=      5-min Rain = 0
KSE2 161545Z 17010KT 24/21 A2994 RMK A01 T02380210  RH  084%=      5-min Rain = 0
KSE2 161546Z 18010KT 24/21 A2994 RMK A01 T02380209  RH  084%=      5-min Rain = 0
KSE2 161547Z 17007KT 24/21 A2994 RMK A01 T02380209  RH  084%=      5-min Rain = 0
KSE2 161548Z 18008KT 24/21 A2994 RMK A01 T02380210  RH  084%=      5-min Rain = 0
KSE2 161549Z 18010KT 24/21 A2994 RMK A01 T02380210  RH  084%=      5-min Rain = 0
KSE2 161550Z 17010KT 24/21 A2994 RMK A01 T02380210  RH  084%=      5-min Rain = 0
KSE2 161551Z 16009KT 24/21 A2994 RMK A01 T02370209  RH  084%=      5-min Rain = 0
KSE2 161552Z 17010KT 24/21 A2994 RMK A01 T02370210  RH  084%=      5-min Rain = 0
KSE2 161553Z 17008KT 24/21 A2994 RMK A01 T02380210  RH  084%=      5-min Rain = 0
KSE2 161554Z 18010KT 24/21 A2994 RMK A01 T02370210  RH  084%=      5-min Rain = 0
KSE2 161555Z 17012G18KT 24/21 A2994 RMK A01 T02380210  RH  084%=      5-min Rain = 0
KSE2 161556Z 18013KT 24/21 A2994 RMK A01 T02380209  RH  084%=      5-min Rain = 0
KSE2 161557Z 17011G19KT 24/21 A2994 RMK A01 T02380209  RH  084%=      5-min Rain = 0
KSE2 161558Z 18012KT 24/21 A2994 RMK A01 T02380208  RH  084%=      5-min Rain = 0
KSE2 161559Z 18011KT 24/21 A2994 RMK A01 T02380209  RH  084%=      5-min Rain = 0
KSE2 161600Z 18009G15KT 24/21 A2994 RMK A01 T02380209  RH  084%=      5-min Rain = 0
KSE2 161601Z 17009KT 24/21 A2994 RMK A01 T02390210  RH  084%=      5-min Rain = 0
KSE2 161602Z 18009KT 24/21 A2994 RMK A01 T02400210  RH  084%=      5-min Rain = 0
KSE2 161603Z 17013KT 24/21 A2994 RMK A01 T02400209  RH  083%=      5-min Rain = 0
KSE2 161604Z 17011KT 24/21 A2994 RMK A01 T02400209  RH  083%=      5-min Rain = 0
KSE2 161605Z 17013KT 24/21 A2994 RMK A01 T02400208  RH  082%=      5-min Rain = 0
KSE2 161606Z 17011KT 24/21 A2994 RMK A01 T02410208  RH  082%=      5-min Rain = 0
KSE2 161607Z 17012KT 24/21 A2994 RMK A01 T02400208  RH  082%=      5-min Rain = 0
KSE2 161608Z 18012G17KT 24/21 A2994 RMK A01 T02410209  RH  082%=      5-min Rain = 0
KSE2 161609Z 18012KT 24/21 A2994 RMK A01 T02410209  RH  082%=      5-min Rain = 0
KSE2 161610Z 18011KT 24/21 A2994 RMK A01 T02410209  RH  082%=      5-min Rain = 0
KSE2 161611Z 18012KT 24/21 A2994 RMK A01 T02410209  RH  082%=      5-min Rain = 0
KSE2 161612Z 19010KT 24/21 A2994 RMK A01 T02410209  RH  082%=      5-min Rain = 0
KSE2 161613Z 19010G15KT 24/21 A2994 RMK A01 T02410209  RH  082%=      5-min Rain = 0
KSE2 161614Z 18009KT 24/21 A2994 RMK A01 T02420210  RH  082%=      5-min Rain = 0
KSE2 161615Z 19009G14KT 24/21 A2994 RMK A01 T02430210  RH  082%=      5-min Rain = 0
KSE2 161616Z 17010KT 24/21 A2994 RMK A01 T02440211  RH  082%=      5-min Rain = 0
KSE2 161617Z 17008KT 24/21 A2994 RMK A01 T02440210  RH  081%=      5-min Rain = 0
KSE2 161618Z 17009KT 25/21 A2994 RMK A01 T02450210  RH  081%=      5-min Rain = 0
KSE2 161619Z 16013KT 25/21 A2994 RMK A01 T02460211  RH  081%=      5-min Rain = 0
KSE2 161620Z 17014G19KT 25/21 A2994 RMK A01 T02470210  RH  080%=      5-min Rain = 0
KSE2 161621Z 16014KT 25/21 A2994 RMK A01 T02480209  RH  079%=      5-min Rain = 0
KSE2 161622Z 17011G16KT 25/21 A2994 RMK A01 T02490209  RH  078%=      5-min Rain = 0
KSE2 161623Z 17011KT 25/21 A2993 RMK A01 T02500210  RH  079%=      5-min Rain = 0
KSE2 161624Z 18017G22KT 25/21 A2993 RMK A01 T02510210  RH  078%=      5-min Rain = 0
KSE2 161625Z 16012G19KT 25/21 A2993 RMK A01 T02510210  RH  078%=      5-min Rain = 0
KSE2 161626Z 17012G17KT 25/21 A2993 RMK A01 T02520210  RH  077%=      5-min Rain = 0
KSE2 161627Z 16011G18KT 25/21 A2993 RMK A01 T02530211  RH  078%=      5-min Rain = 0
KSE2 161628Z 16014G20KT 26/21 A2993 RMK A01 T02550211  RH  077%=      5-min Rain = 0
KSE2 161629Z 18013KT 26/21 A2993 RMK A01 T02560210  RH  076%=      5-min Rain = 0
KSE2 161630Z 19011KT 26/21 A2993 RMK A01 T02560211  RH  076%=      5-min Rain = 0
KSE2 161631Z 18013KT 26/21 A2993 RMK A01 T02570211  RH  076%=      5-min Rain = 0
KSE2 161632Z 16012KT 26/21 A2994 RMK A01 T02570212  RH  076%=      5-min Rain = 0
KSE2 161633Z 17013KT 26/21 A2994 RMK A01 T02580211  RH  076%=      5-min Rain = 0
KSE2 161634Z 17009G15KT 26/21 A2994 RMK A01 T02570212  RH  076%=      5-min Rain = 0
KSE2 161635Z 18012KT 26/21 A2994 RMK A01 T02560211  RH  076%=      5-min Rain = 0
KSE2 161636Z 16011KT 26/21 A2994 RMK A01 T02570211  RH  076%=      5-min Rain = 0
KSE2 161637Z 16014KT 26/21 A2994 RMK A01 T02580210  RH  075%=      5-min Rain = 0
KSE2 161638Z 17011KT 26/21 A2994 RMK A01 T02560210  RH  076%=      5-min Rain = 0
KSE2 161639Z 17007KT 26/21 A2994 RMK A01 T02560212  RH  077%=      5-min Rain = 0
KSE2 161640Z 16008G13KT 26/22 A2994 RMK A01 T02580215  RH  077%=      5-min Rain = 0
KSE2 161641Z 16008KT 26/21 A2994 RMK A01 T02590214  RH  076%=      5-min Rain = 0
KSE2 161642Z 16009G14KT 26/22 A2994 RMK A01 T02600215  RH  076%=      5-min Rain = 0
KSE2 161643Z 16011KT 26/21 A2994 RMK A01 T02610213  RH  075%=      5-min Rain = 0
KSE2 161644Z 17009KT 26/21 A2994 RMK A01 T02590213  RH  076%=      5-min Rain = 0
KSE2 161645Z 15010KT 26/21 A2994 RMK A01 T02580214  RH  077%=      5-min Rain = 0
KSE2 161646Z 16009KT 26/21 A2994 RMK A01 T02590214  RH  076%=      5-min Rain = 0
KSE2 161647Z 17010G15KT 26/21 A2994 RMK A01 T02590213  RH  076%=      5-min Rain = 0
KSE2 161648Z 18011G17KT 26/21 A2994 RMK A01 T02590213  RH  076%=      5-min Rain = 0
KSE2 161649Z 19011G17KT 26/21 A2994 RMK A01 T02590212  RH  075%=      5-min Rain = 0
KSE2 161650Z 17010KT 26/21 A2994 RMK A01 T02580211  RH  075%=      5-min Rain = 0
KSE2 161651Z 17010G15KT 26/21 A2994 RMK A01 T02570212  RH  076%=      5-min Rain = 0
KSE2 161652Z 17010G15KT 26/21 A2994 RMK A01 T02580213  RH  076%=      5-min Rain = 0
KSE2 161653Z 18012KT 26/21 A2994 RMK A01 T02590213  RH  076%=      5-min Rain = 0
KSE2 161654Z 17012G17KT 26/21 A2994 RMK A01 T02600213  RH  075%=      5-min Rain = 0
KSE2 161655Z 18014KT 26/21 A2994 RMK A01 T02590212  RH  075%=      5-min Rain = 0
KSE2 161656Z 17013KT 26/21 A2994 RMK A01 T02590211  RH  075%=      5-min Rain = 0
KSE2 161657Z 17012KT 26/21 A2994 RMK A01 T02570211  RH  076%=      5-min Rain = 0
KSE2 161658Z 18009KT 26/21 A2994 RMK A01 T02580213  RH  076%=      5-min Rain = 0
KSE2 161659Z 17009KT 26/21 A2994 RMK A01 T02590214  RH  076%=      5-min Rain = 0
KSE2 161700Z 18010G16KT 26/21 A2994 RMK A01 T02600214  RH  075%=      5-min Rain = 0
KSE2 161701Z 18006KT 26/22 A2994 RMK A01 T02600215  RH  076%=      5-min Rain = 0
KSE2 161702Z 19012KT 26/21 A2994 RMK A01 T02610214  RH  075%=      5-min Rain = 0
KSE2 161703Z 18008G13KT 26/21 A2994 RMK A01 T02620214  RH  075%=      5-min Rain = 0
KSE2 161704Z 16011KT 26/21 A2994 RMK A01 T02610213  RH  075%=      5-min Rain = 0
KSE2 161705Z 18011KT 26/21 A2994 RMK A01 T02610213  RH  075%=      5-min Rain = 0
KSE2 161706Z 17014KT 26/21 A2994 RMK A01 T02600212  RH  075%=      5-min Rain = 0
KSE2 161707Z 18011G16KT 26/21 A2993 RMK A01 T02600213  RH  075%=      5-min Rain = 0
KSE2 161708Z 17012G19KT 26/21 A2993 RMK A01 T02610213  RH  075%=      5-min Rain = 0
KSE2 161709Z 17014KT 26/21 A2993 RMK A01 T02610212  RH  074%=      5-min Rain = 0
KSE2 161710Z 18014KT 26/21 A2993 RMK A01 T02600212  RH  074%=      5-min Rain = 0
KSE2 161711Z 17013KT 26/21 A2993 RMK A01 T02600213  RH  075%=      5-min Rain = 0
KSE2 161712Z 17010KT 26/22 A2993 RMK A01 T02610215  RH  076%=      5-min Rain = 0
KSE2 161713Z 15010G16KT 26/22 A2993 RMK A01 T02620215  RH  075%=      5-min Rain = 0
KSE2 161714Z 16014KT 26/21 A2993 RMK A01 T02630213  RH  074%=      5-min Rain = 0
KSE2 161715Z 16010KT 26/21 A2993 RMK A01 T02610213  RH  075%=      5-min Rain = 0
KSE2 161716Z 17012KT 26/21 A2993 RMK A01 T02600213  RH  075%=      5-min Rain = 0
KSE2 161717Z 18010KT 26/21 A2993 RMK A01 T02590213  RH  076%=      5-min Rain = 0
KSE2 161718Z 16008KT 26/21 A2993 RMK A01 T02590214  RH  076%=      5-min Rain = 0
KSE2 161719Z 15011KT 26/22 A2993 RMK A01 T02610215  RH  076%=      5-min Rain = 0
KSE2 161720Z 16010KT 26/22 A2993 RMK A01 T02620215  RH  075%=      5-min Rain = 0
KSE2 161721Z 16010KT 26/22 A2993 RMK A01 T02620217  RH  076%=      5-min Rain = 0
KSE2 161722Z 17009KT 26/22 A2993 RMK A01 T02630216  RH  075%=      5-min Rain = 0
KSE2 161723Z 18011KT 26/22 A2993 RMK A01 T02640215  RH  075%=      5-min Rain = 0
KSE2 161724Z 18010KT 26/22 A2993 RMK A01 T02640215  RH  075%=      5-min Rain = 0
KSE2 161725Z 16008KT 26/22 A2993 RMK A01 T02630215  RH  075%=      5-min Rain = 0
KSE2 161726Z 15013KT 26/21 A2993 RMK A01 T02630213  RH  074%=      5-min Rain = 0
KSE2 161727Z 14014KT 26/21 A2993 RMK A01 T02640213  RH  074%=      5-min Rain = 0
KSE2 161728Z 14010KT 27/21 A2993 RMK A01 T02660214  RH  073%=      5-min Rain = 0
KSE2 161729Z 14012KT 27/22 A2993 RMK A01 T02680216  RH  073%=      5-min Rain = 0
KSE2 161730Z 14011KT 27/22 A2993 RMK A01 T02700216  RH  072%=      5-min Rain = 0
KSE2 161731Z 15013KT 27/22 A2993 RMK A01 T02700215  RH  072%=      5-min Rain = 0
KSE2 161732Z 16012KT 27/21 A2993 RMK A01 T02700213  RH  071%=      5-min Rain = 0
KSE2 161733Z 17014G19KT 27/21 A2993 RMK A01 T02680212  RH  071%=      5-min Rain = 0
KSE2 161734Z 18009G14KT 27/21 A2993 RMK A01 T02670213  RH  072%=      5-min Rain = 0
KSE2 161735Z 17012KT 27/21 A2993 RMK A01 T02670214  RH  073%=      5-min Rain = 0
KSE2 161736Z 17012G18KT 27/21 A2993 RMK A01 T02680214  RH  072%=      5-min Rain = 0
KSE2 161737Z 16012G17KT 27/21 A2993 RMK A01 T02670212  RH  072%=      5-min Rain = 0
KSE2 161738Z 16007KT 27/21 A2993 RMK A01 T02670214  RH  073%=      5-min Rain = 0
KSE2 161739Z 17012KT 27/22 A2993 RMK A01 T02720216  RH  072%=      5-min Rain = 0
KSE2 161740Z 17012KT 27/21 A2993 RMK A01 T02730213  RH  070%=      5-min Rain = 0
KSE2 161741Z 16011KT 27/21 A2993 RMK A01 T02720214  RH  071%=      5-min Rain = 0
KSE2 161742Z 17013KT 27/21 A2993 RMK A01 T02710213  RH  071%=      5-min Rain = 0
KSE2 161743Z 16012KT 27/21 A2993 RMK A01 T02700212  RH  070%=      5-min Rain = 0
KSE2 161744Z 16012G18KT 27/21 A2993 RMK A01 T02690212  RH  071%=      5-min Rain = 0
KSE2 161745Z 16009KT 27/21 A2993 RMK A01 T02680213  RH  072%=      5-min Rain = 0
KSE2 161746Z 16011KT 27/22 A2993 RMK A01 T02690215  RH  072%=      5-min Rain = 0
KSE2 161747Z 16011KT 27/21 A2993 RMK A01 T02690213  RH  071%=      5-min Rain = 0
KSE2 161748Z 18008KT 27/21 A2993 RMK A01 T02680214  RH  072%=      5-min Rain = 0
KSE2 161749Z 18011KT 27/21 A2993 RMK A01 T02680213  RH  072%=      5-min Rain = 0
KSE2 161750Z 17009KT 27/21 A2993 RMK A01 T02680213  RH  072%=      5-min Rain = 0
KSE2 161751Z 18010KT 27/21 A2993 RMK A01 T02680212  RH  071%=      5-min Rain = 0
KSE2 161752Z 17007KT 27/21 A2993 RMK A01 T02670212  RH  072%=      5-min Rain = 0
KSE2 161753Z 16008KT 27/21 A2993 RMK A01 T02670212  RH  072%=      5-min Rain = 0
KSE2 161754Z 17008G13KT 27/21 A2993 RMK A01 T02670214  RH  072%=      5-min Rain = 0
KSE2 161755Z 18011KT 27/21 A2993 RMK A01 T02680213  RH  072%=      5-min Rain = 0
KSE2 161756Z 19009KT 27/21 A2993 RMK A01 T02670212  RH  071%=      5-min Rain = 0
KSE2 161757Z 18012KT 27/21 A2993 RMK A01 T02670213  RH  072%=      5-min Rain = 0
KSE2 161758Z 17009KT 27/21 A2993 RMK A01 T02670213  RH  072%=      5-min Rain = 0
KSE2 161759Z 20008KT 27/22 A2993 RMK A01 T02680215  RH  073%=      5-min Rain = 0
KSE2 161800Z 19010KT 27/22 A2993 RMK A01 T02700215  RH  072%=      5-min Rain = 0
KSE2 161801Z 19008KT 27/22 A2993 RMK A01 T02720216  RH  072%=      5-min Rain = 0
KSE2 161802Z 18011G18KT 27/22 A2993 RMK A01 T02740216  RH  070%=      5-min Rain = 0
KSE2 161803Z 18012KT 28/22 A2993 RMK A01 T02770215  RH  069%=      5-min Rain = 0
KSE2 161804Z 18014KT 28/22 A2993 RMK A01 T02790215  RH  068%=      5-min Rain = 0
KSE2 161805Z 17012KT 28/21 A2993 RMK A01 T02800214  RH  067%=      5-min Rain = 0
KSE2 161806Z 16010KT 28/21 A2993 RMK A01 T02770213  RH  068%=      5-min Rain = 0
KSE2 161807Z 17010KT 28/21 A2993 RMK A01 T02750214  RH  069%=      5-min Rain = 0
KSE2 161808Z 18009KT 27/21 A2993 RMK A01 T02740213  RH  069%=      5-min Rain = 0
KSE2 161809Z 19009KT 27/22 A2993 RMK A01 T02740216  RH  071%=      5-min Rain = 0
KSE2 161810Z 18009G15KT 28/22 A2993 RMK A01 T02760215  RH  070%=      5-min Rain = 0
KSE2 161811Z 16008KT 28/22 A2993 RMK A01 T02760216  RH  070%=      5-min Rain = 0
KSE2 161812Z 19007KT 28/22 A2993 RMK A01 T02770217  RH  069%=      5-min Rain = 0
KSE2 161813Z 19009KT 28/22 A2993 RMK A01 T02770215  RH  069%=      5-min Rain = 0
KSE2 161814Z 17006KT 28/22 A2993 RMK A01 T02760217  RH  070%=      5-min Rain = 0
KSE2 161815Z 17007G12KT 28/22 A2993 RMK A01 T02760217  RH  070%=      5-min Rain = 0
KSE2 161816Z 17007KT 28/22 A2993 RMK A01 T02770215  RH  069%=      5-min Rain = 0
KSE2 161817Z 17008KT 28/22 A2993 RMK A01 T02770215  RH  069%=      5-min Rain = 0
KSE2 161818Z 17007KT 28/22 A2993 RMK A01 T02780216  RH  069%=      5-min Rain = 0
KSE2 161819Z 17011G16KT 28/22 A2993 RMK A01 T02790215  RH  068%=      5-min Rain = 0
KSE2 161820Z 18015KT 28/21 A2993 RMK A01 T02790214  RH  068%=      5-min Rain = 0
KSE2 161821Z 19010KT 28/21 A2993 RMK A01 T02790214  RH  068%=      5-min Rain = 0
KSE2 161822Z 18012KT 28/22 A2993 RMK A01 T02800216  RH  068%=      5-min Rain = 0
KSE2 161823Z 19009KT 28/21 A2992 RMK A01 T02810214  RH  067%=      5-min Rain = 0
KSE2 161824Z 17010KT 28/22 A2992 RMK A01 T02830217  RH  067%=      5-min Rain = 0
KSE2 161825Z 16009KT 28/22 A2992 RMK A01 T02830216  RH  067%=      5-min Rain = 0
KSE2 161826Z 15010KT 28/22 A2992 RMK A01 T02830215  RH  067%=      5-min Rain = 0
KSE2 161827Z 16012G17KT 28/22 A2992 RMK A01 T02820215  RH  067%=      5-min Rain = 0
KSE2 161828Z 17013G18KT 28/21 A2992 RMK A01 T02830214  RH  066%=      5-min Rain = 0
KSE2 161829Z 17012KT 28/21 A2992 RMK A01 T02840213  RH  065%=      5-min Rain = 0
KSE2 161830Z 18012KT 28/21 A2992 RMK A01 T02840212  RH  065%=      5-min Rain = 0
KSE2 161831Z 18011G17KT 28/21 A2992 RMK A01 T02840214  RH  066%=      5-min Rain = 0
KSE2 161832Z 20013KT 29/21 A2992 RMK A01 T02850214  RH  065%=      5-min Rain = 0
KSE2 161833Z 19010KT 29/21 A2992 RMK A01 T02860214  RH  065%=      5-min Rain = 0
KSE2 161834Z 20010KT 29/22 A2991 RMK A01 T02870215  RH  065%=      5-min Rain = 0
KSE2 161835Z 19013KT 29/22 A2991 RMK A01 T02880216  RH  065%=      5-min Rain = 0
KSE2 161836Z 18009KT 29/22 A2991 RMK A01 T02880215  RH  065%=      5-min Rain = 0
KSE2 161837Z 18011G16KT 29/22 A2991 RMK A01 T02900217  RH  065%=      5-min Rain = 0
KSE2 161838Z 18012G18KT 29/21 A2991 RMK A01 T02910214  RH  063%=      5-min Rain = 0
KSE2 161839Z 16010KT 29/22 A2991 RMK A01 T02890215  RH  064%=      5-min Rain = 0
KSE2 161840Z 16013KT 29/21 A2991 RMK A01 T02900213  RH  063%=      5-min Rain = 0
KSE2 161841Z 17011KT 29/21 A2991 RMK A01 T02890214  RH  064%=      5-min Rain = 0
KSE2 161842Z 18009G15KT 29/21 A2991 RMK A01 T02870214  RH  065%=      5-min Rain = 0
KSE2 161843Z 19009KT 29/22 A2991 RMK A01 T02860217  RH  066%=      5-min Rain = 0
KSE2 161844Z 17010KT 29/22 A2991 RMK A01 T02880219  RH  066%=      5-min Rain = 0
KSE2 161845Z 15013KT 29/22 A2991 RMK A01 T02900216  RH  064%=      5-min Rain = 0
KSE2 161846Z 15011KT 29/22 A299 RMK A01 T02890216  RH  065%=      5-min Rain = 0
KSE2 161847Z 16009G14KT 29/22 A299 RMK A01 T02890218  RH  066%=      5-min Rain = 0
KSE2 161848Z 18008KT 29/22 A299 RMK A01 T02900221  RH  066%=      5-min Rain = 0
KSE2 161849Z 18010G15KT 29/22 A299 RMK A01 T02940221  RH  065%=      5-min Rain = 0
KSE2 161850Z 18011KT 29/22 A299 RMK A01 T02940215  RH  062%=      5-min Rain = 0
KSE2 161851Z 18008G13KT 29/22 A299 RMK A01 T02910217  RH  064%=      5-min Rain = 0
KSE2 161852Z 16011KT 29/22 A299 RMK A01 T02900217  RH  065%=      5-min Rain = 0
KSE2 161853Z 16008KT 29/22 A299 RMK A01 T02870215  RH  065%=      5-min Rain = 0
KSE2 161854Z 15008KT 29/22 A299 RMK A01 T02850215  RH  066%=      5-min Rain = 0
KSE2 161855Z 18011KT 29/22 A299 RMK A01 T02850217  RH  067%=      5-min Rain = 0
KSE2 161856Z 17009KT 29/22 A299 RMK A01 T02860216  RH  066%=      5-min Rain = 0
KSE2 161857Z 15009G15KT 29/22 A299 RMK A01 T02880218  RH  066%=      5-min Rain = 0
KSE2 161858Z 15011KT 29/22 A299 RMK A01 T02890216  RH  065%=      5-min Rain = 0
KSE2 161859Z 15009KT 29/22 A299 RMK A01 T02910216  RH  064%=      5-min Rain = 0
KSE2 161900Z 16009G16KT 29/22 A299 RMK A01 T02910217  RH  064%=      5-min Rain = 0
KSE2 161901Z 17011G16KT 29/22 A299 RMK A01 T02920217  RH  064%=      5-min Rain = 0
KSE2 161902Z 14010KT 29/22 A299 RMK A01 T02930217  RH  064%=      5-min Rain = 0
KSE2 161903Z 15009KT 29/22 A299 RMK A01 T02930221  RH  065%=      5-min Rain = 0
KSE2 161904Z 16012KT 30/22 A299 RMK A01 T02970219  RH  063%=      5-min Rain = 0
KSE2 161905Z 16009KT 30/22 A299 RMK A01 T02970217  RH  062%=      5-min Rain = 0
KSE2 161906Z 17012KT 30/22 A299 RMK A01 T02960215  RH  062%=      5-min Rain = 0
KSE2 161907Z 17006G11KT 30/22 A299 RMK A01 T02950215  RH  062%=      5-min Rain = 0
KSE2 161908Z 16007KT 29/22 A299 RMK A01 T02940218  RH  063%=      5-min Rain = 0
KSE2 161909Z 17009KT 29/22 A2989 RMK A01 T02940218  RH  063%=      5-min Rain = 0
KSE2 161910Z 18012KT 29/22 A299 RMK A01 T02930218  RH  064%=      5-min Rain = 0
KSE2 161911Z 17008G13KT 29/22 A299 RMK A01 T02930216  RH  063%=      5-min Rain = 0
KSE2 161912Z 18006KT 29/22 A299 RMK A01 T02940218  RH  064%=      5-min Rain = 0
KSE2 161913Z 17006KT 30/22 A2989 RMK A01 T02960220  RH  063%=      5-min Rain = 0
KSE2 161914Z 17009KT 30/22 A2989 RMK A01 T02980215  RH  061%=      5-min Rain = 0
KSE2 161915Z 15008KT 30/22 A2989 RMK A01 T02970217  RH  062%=      5-min Rain = 0
KSE2 161916Z 15010KT 30/22 A2989 RMK A01 T02970218  RH  063%=      5-min Rain = 0
KSE2 161917Z 14011KT 30/22 A2989 RMK A01 T02960218  RH  063%=      5-min Rain = 0
KSE2 161918Z 14012KT 29/22 A2989 RMK A01 T02940216  RH  063%=      5-min Rain = 0
KSE2 161919Z 15010KT 29/22 A2989 RMK A01 T02920216  RH  063%=      5-min Rain = 0
KSE2 161920Z 16008KT 29/22 A2989 RMK A01 T02930219  RH  064%=      5-min Rain = 0
KSE2 161921Z 18010KT 30/22 A2989 RMK A01 T02970221  RH  064%=      5-min Rain = 0
KSE2 161922Z 17010KT 30/22 A2989 RMK A01 T02990219  RH  062%=      5-min Rain = 0
KSE2 161923Z 19009KT 30/22 A2989 RMK A01 T03000219  RH  062%=      5-min Rain = 0
KSE2 161924Z 21012KT 30/22 A2989 RMK A01 T03000217  RH  061%=      5-min Rain = 0
KSE2 161925Z 19009KT 30/22 A2989 RMK A01 T02980215  RH  061%=      5-min Rain = 0
KSE2 161926Z 18010G15KT 30/22 A2989 RMK A01 T02960218  RH  063%=      5-min Rain = 0
KSE2 161927Z 18012KT 30/22 A2989 RMK A01 T02980216  RH  061%=      5-min Rain = 0
KSE2 161928Z 18010KT 30/21 A2989 RMK A01 T02990214  RH  060%=      5-min Rain = 0
KSE2 161929Z 18009KT 30/21 A2989 RMK A01 T02980214  RH  061%=      5-min Rain = 0
KSE2 161930Z 19009KT 30/21 A2988 RMK A01 T02970214  RH  061%=      5-min Rain = 0
KSE2 161931Z 16009KT 30/22 A2988 RMK A01 T02970217  RH  062%=      5-min Rain = 0
KSE2 161932Z 16014KT 30/22 A2988 RMK A01 T02980215  RH  061%=      5-min Rain = 0
KSE2 161933Z 15010KT 30/21 A2988 RMK A01 T02970214  RH  061%=      5-min Rain = 0
KSE2 161934Z 15010KT 30/21 A2988 RMK A01 T02950214  RH  061%=      5-min Rain = 0
KSE2 161935Z 15010KT 30/22 A2988 RMK A01 T02960217  RH  063%=      5-min Rain = 0
KSE2 161936Z 14010KT 30/22 A2988 RMK A01 T02970216  RH  062%=      5-min Rain = 0
KSE2 161937Z 16008KT 30/22 A2988 RMK A01 T02960216  RH  062%=      5-min Rain = 0
KSE2 161938Z 16006KT 30/22 A2988 RMK A01 T02970222  RH  064%=      5-min Rain = 0
KSE2 161939Z 19005KT 30/22 A2988 RMK A01 T03020221  RH  062%=      5-min Rain = 0
KSE2 161940Z 18008KT 30/22 A2988 RMK A01 T03040219  RH  060%=      5-min Rain = 0
KSE2 161941Z 19012KT 31/21 A2988 RMK A01 T03050214  RH  058%=      5-min Rain = 0
KSE2 161942Z 20008KT 30/21 A2988 RMK A01 T03040214  RH  059%=      5-min Rain = 0
KSE2 161943Z 19008KT 31/22 A2988 RMK A01 T03050215  RH  059%=      5-min Rain = 0
KSE2 161944Z 18010KT 31/22 A2988 RMK A01 T03070218  RH  059%=      5-min Rain = 0
KSE2 161945Z 16010KT 31/22 A2988 RMK A01 T03070219  RH  060%=      5-min Rain = 0
KSE2 161946Z 16009KT 31/22 A2988 RMK A01 T03060221  RH  060%=      5-min Rain = 0
KSE2 161947Z 17008G14KT 31/22 A2988 RMK A01 T03060222  RH  061%=      5-min Rain = 0
KSE2 161948Z 19014KT 31/22 A2988 RMK A01 T03060218  RH  059%=      5-min Rain = 0
KSE2 161949Z 20010KT 31/22 A2988 RMK A01 T03060216  RH  059%=      5-min Rain = 0
KSE2 161950Z 21007G12KT 30/22 A2988 RMK A01 T03040218  RH  060%=      5-min Rain = 0
KSE2 161951Z 16008KT 31/22 A2988 RMK A01 T03050220  RH  061%=      5-min Rain = 0
KSE2 161952Z 18010KT 31/22 A2988 RMK A01 T03070220  RH  060%=      5-min Rain = 0
KSE2 161953Z 19011KT 31/22 A2988 RMK A01 T03080216  RH  058%=      5-min Rain = 0
KSE2 161954Z 18011KT 31/22 A2988 RMK A01 T03080216  RH  058%=      5-min Rain = 0
KSE2 161955Z 18006KT 31/22 A2988 RMK A01 T03080220  RH  059%=      5-min Rain = 0
KSE2 161956Z 19009G14KT 31/22 A2988 RMK A01 T03090217  RH  058%=      5-min Rain = 0
KSE2 161957Z 19009G14KT 31/22 A2988 RMK A01 T03080218  RH  059%=      5-min Rain = 0
KSE2 161958Z 18010KT 31/22 A2988 RMK A01 T03080218  RH  058%=      5-min Rain = 0
KSE2 161959Z 19009KT 31/22 A2988 RMK A01 T03090217  RH  058%=      5-min Rain = 0
KSE2 162000Z 20009G15KT 31/22 A2988 RMK A01 T03080216  RH  058%=      5-min Rain = 0
KSE2 162001Z 21016G21KT 31/22 A2987 RMK A01 T03070215  RH  058%=      5-min Rain = 0
KSE2 162002Z 16011KT 31/22 A2988 RMK A01 T03060216  RH  059%=      5-min Rain = 0
KSE2 162003Z 16011KT 31/22 A2988 RMK A01 T03060216  RH  059%=      5-min Rain = 0
KSE2 162004Z 18009G14KT 30/22 A2988 RMK A01 T03040215  RH  059%=      5-min Rain = 0
KSE2 162005Z 17010KT 30/22 A2988 RMK A01 T03040216  RH  059%=      5-min Rain = 0
KSE2 162006Z 18009KT 30/21 A2987 RMK A01 T03040214  RH  059%=      5-min Rain = 0
KSE2 162007Z 17010KT 30/22 A2987 RMK A01 T03030215  RH  059%=      5-min Rain = 0
KSE2 162008Z 20007KT 30/22 A2987 RMK A01 T03020217  RH  060%=      5-min Rain = 0
KSE2 162009Z 16010KT 31/22 A2987 RMK A01 T03050220  RH  060%=      5-min Rain = 0
KSE2 162010Z 15011G16KT 31/22 A2987 RMK A01 T03070215  RH  058%=      5-min Rain = 0
KSE2 162011Z 16010KT 31/22 A2987 RMK A01 T03060215  RH  058%=      5-min Rain = 0
KSE2 162012Z 18007KT 31/22 A2987 RMK A01 T03060217  RH  059%=      5-min Rain = 0
KSE2 162013Z 17006KT 31/22 A2987 RMK A01 T03080219  RH  059%=      5-min Rain = 0
KSE2 162014Z 16006KT 31/22 A2987 RMK A01 T03090220  RH  059%=      5-min Rain = 0
KSE2 162015Z 16012KT 31/22 A2987 RMK A01 T03110219  RH  058%=      5-min Rain = 0
KSE2 162016Z 16010KT 31/22 A2987 RMK A01 T03110217  RH  057%=      5-min Rain = 0
KSE2 162017Z 19008KT 31/22 A2987 RMK A01 T03100216  RH  058%=      5-min Rain = 0
KSE2 162018Z 20008KT 31/21 A2987 RMK A01 T03100214  RH  057%=      5-min Rain = 0
KSE2 162019Z 18009KT 31/21 A2987 RMK A01 T03110214  RH  056%=      5-min Rain = 0
KSE2 162020Z 18010KT 31/22 A2987 RMK A01 T03120216  RH  057%=      5-min Rain = 0
KSE2 162021Z 17010KT 31/22 A2987 RMK A01 T03110215  RH  057%=      5-min Rain = 0
KSE2 162022Z 17006KT 31/22 A2987 RMK A01 T03090217  RH  058%=      5-min Rain = 0
KSE2 162023Z 15010KT 31/22 A2987 RMK A01 T03100217  RH  058%=      5-min Rain = 0
KSE2 162024Z 17008KT 31/22 A2987 RMK A01 T03090215  RH  057%=      5-min Rain = 0
KSE2 162025Z 18010KT 31/22 A2987 RMK A01 T03100220  RH  059%=      5-min Rain = 0
KSE2 162026Z 18011G17KT 31/22 A2987 RMK A01 T03120215  RH  056%=      5-min Rain = 0
KSE2 162027Z 20011KT 31/21 A2987 RMK A01 T03110214  RH  056%=      5-min Rain = 0
KSE2 162028Z 20007KT 31/21 A2986 RMK A01 T03080214  RH  057%=      5-min Rain = 0
KSE2 162029Z 18012KT 31/22 A2986 RMK A01 T03060215  RH  058%=      5-min Rain = 0
KSE2 162030Z 16010KT 31/21 A2986 RMK A01 T03060213  RH  057%=      5-min Rain = 0
KSE2 162031Z 16010KT 31/21 A2986 RMK A01 T03070214  RH  058%=      5-min Rain = 0
KSE2 162032Z 17011KT 31/22 A2986 RMK A01 T03070215  RH  058%=      5-min Rain = 0
KSE2 162033Z 16010G15KT 31/21 A2986 RMK A01 T03070214  RH  058%=      5-min Rain = 0
KSE2 162034Z 15012KT 31/21 A2986 RMK A01 T03060214  RH  058%=      5-min Rain = 0
KSE2 162035Z 16010KT 31/22 A2986 RMK A01 T03050215  RH  059%=      5-min Rain = 0
KSE2 162036Z 17010KT 31/22 A2986 RMK A01 T03070218  RH  059%=      5-min Rain = 0
KSE2 162037Z 17007KT 31/22 A2986 RMK A01 T03080217  RH  058%=      5-min Rain = 0
KSE2 162038Z 18009G14KT 31/22 A2986 RMK A01 T03090218  RH  059%=      5-min Rain = 0
KSE2 162039Z 17009KT 31/22 A2986 RMK A01 T03090215  RH  057%=      5-min Rain = 0
KSE2 162040Z 19010KT 31/22 A2986 RMK A01 T03100215  RH  057%=      5-min Rain = 0
KSE2 162041Z 20010KT 31/21 A2986 RMK A01 T03120213  RH  056%=      5-min Rain = 0
KSE2 162042Z 17007KT 31/22 A2986 RMK A01 T03120218  RH  057%=      5-min Rain = 0
KSE2 162043Z 17010KT 31/22 A2986 RMK A01 T03140218  RH  057%=      5-min Rain = 0
KSE2 162044Z 17010KT 31/22 A2986 RMK A01 T03140216  RH  056%=      5-min Rain = 0
KSE2 162045Z 16008KT 31/21 A2986 RMK A01 T03120213  RH  056%=      5-min Rain = 0
KSE2 162046Z 16007G12KT 31/22 A2986 RMK A01 T03110215  RH  057%=      5-min Rain = 0
KSE2 162047Z 15011KT 31/22 A2985 RMK A01 T03120217  RH  057%=      5-min Rain = 0
KSE2 162048Z 14007KT 31/22 A2985 RMK A01 T03120215  RH  056%=      5-min Rain = 0
KSE2 162049Z 16009G14KT 31/22 A2985 RMK A01 T03130217  RH  057%=      5-min Rain = 0
KSE2 162050Z 17008G13KT 31/22 A2985 RMK A01 T03130216  RH  056%=      5-min Rain = 0
KSE2 162051Z 17008KT 32/22 A2986 RMK A01 T03150219  RH  057%=      5-min Rain = 0
KSE2 162052Z 18007KT 32/22 A2986 RMK A01 T03170219  RH  056%=      5-min Rain = 0
KSE2 162053Z 18007KT 32/22 A2986 RMK A01 T03170219  RH  056%=      5-min Rain = 0
KSE2 162054Z 22006KT 32/22 A2986 RMK A01 T03170219  RH  056%=      5-min Rain = 0
KSE2 162055Z 19005KT 32/22 A2986 RMK A01 T03170216  RH  055%=      5-min Rain = 0
KSE2 162056Z 16007G13KT 32/22 A2986 RMK A01 T03160218  RH  056%=      5-min Rain = 0
KSE2 162057Z 16012KT 32/22 A2985 RMK A01 T03160218  RH  056%=      5-min Rain = 0
KSE2 162058Z 16010G16KT 32/22 A2985 RMK A01 T03150218  RH  056%=      5-min Rain = 0
KSE2 162059Z 16011KT 32/22 A2985 RMK A01 T03150218  RH  056%=      5-min Rain = 0
KSE2 162100Z 16008KT 31/22 A2985 RMK A01 T03140221  RH  058%=      5-min Rain = 0
KSE2 162101Z 15010KT 32/22 A2985 RMK A01 T03160219  RH  057%=      5-min Rain = 0
KSE2 162102Z 18013KT 32/22 A2985 RMK A01 T03160219  RH  056%=      5-min Rain = 0
KSE2 162103Z 18010KT 32/22 A2985 RMK A01 T03160219  RH  056%=      5-min Rain = 0
KSE2 162104Z 18009KT 32/22 A2985 RMK A01 T03160217  RH  056%=      5-min Rain = 0
KSE2 162105Z 17009KT 31/22 A2985 RMK A01 T03140219  RH  057%=      5-min Rain = 0
KSE2 162106Z 15010KT 32/22 A2985 RMK A01 T03150220  RH  057%=      5-min Rain = 0
KSE2 162107Z 16011KT 32/22 A2985 RMK A01 T03160220  RH  057%=      5-min Rain = 0
KSE2 162108Z 19010KT 32/22 A2985 RMK A01 T03170216  RH  055%=      5-min Rain = 0
KSE2 162109Z 19006KT 32/22 A2985 RMK A01 T03160218  RH  056%=      5-min Rain = 0
KSE2 162110Z 17007KT 32/22 A2985 RMK A01 T03170221  RH  057%=      5-min Rain = 0
KSE2 162111Z 18005KT 32/22 A2985 RMK A01 T03190217  RH  055%=      5-min Rain = 0
KSE2 162112Z 19007KT 32/22 A2985 RMK A01 T03190220  RH  056%=      5-min Rain = 0
KSE2 162113Z 17009KT 32/22 A2985 RMK A01 T03200220  RH  055%=      5-min Rain = 0
KSE2 162114Z 18008KT 32/22 A2985 RMK A01 T03190217  RH  055%=      5-min Rain = 0
KSE2 162115Z 18010KT 32/22 A2985 RMK A01 T03170218  RH  056%=      5-min Rain = 0
KSE2 162116Z 16007KT 32/22 A2985 RMK A01 T03160219  RH  057%=      5-min Rain = 0
KSE2 162117Z 16010KT 32/22 A2985 RMK A01 T03150217  RH  056%=      5-min Rain = 0
KSE2 162118Z 17007G13KT 31/22 A2985 RMK A01 T03130215  RH  056%=      5-min Rain = 0
KSE2 162119Z 17007KT 31/22 A2985 RMK A01 T03130215  RH  056%=      5-min Rain = 0
KSE2 162120Z 17006KT 31/21 A2985 RMK A01 T03130213  RH  055%=      5-min Rain = 0
KSE2 162121Z 17006KT 32/22 A2985 RMK A01 T03150218  RH  057%=      5-min Rain = 0
KSE2 162122Z 17007KT 32/22 A2985 RMK A01 T03170220  RH  056%=      5-min Rain = 0
KSE2 162123Z 18006KT 32/22 A2985 RMK A01 T03180222  RH  057%=      5-min Rain = 0
KSE2 162124Z 16006KT 32/22 A2985 RMK A01 T03190222  RH  057%=      5-min Rain = 0
KSE2 162125Z 15009KT 32/22 A2985 RMK A01 T03200220  RH  056%=      5-min Rain = 0
KSE2 162126Z 15012KT 32/22 A2985 RMK A01 T03180218  RH  055%=      5-min Rain = 0
KSE2 162127Z 15011G16KT 32/22 A2985 RMK A01 T03160216  RH  055%=      5-min Rain = 0
KSE2 162128Z 14009KT 31/22 A2985 RMK A01 T03140219  RH  057%=      5-min Rain = 0
KSE2 162129Z 15008KT 31/22 A2985 RMK A01 T03140216  RH  056%=      5-min Rain = 0
KSE2 162130Z 14007KT 31/22 A2985 RMK A01 T03140218  RH  057%=      5-min Rain = 0
KSE2 162131Z 14007KT 31/22 A2985 RMK A01 T03140220  RH  057%=      5-min Rain = 0
KSE2 162132Z 14010KT 32/22 A2984 RMK A01 T03150221  RH  057%=      5-min Rain = 0
KSE2 162133Z 17013G19KT 32/22 A2984 RMK A01 T03170220  RH  057%=      5-min Rain = 0
KSE2 162134Z 17010KT 32/22 A2985 RMK A01 T03160218  RH  056%=      5-min Rain = 0
KSE2 162135Z 17009KT 31/22 A2985 RMK A01 T03130217  RH  057%=      5-min Rain = 0
KSE2 162136Z 15008KT 31/22 A2985 RMK A01 T03100215  RH  057%=      5-min Rain = 0
KSE2 162137Z 17008KT 31/22 A2985 RMK A01 T03090216  RH  058%=      5-min Rain = 0
KSE2 162138Z 17006KT 31/21 A2985 RMK A01 T03100213  RH  056%=      5-min Rain = 0
KSE2 162139Z 14009G14KT 31/21 A2985 RMK A01 T03130214  RH  056%=      5-min Rain = 0
KSE2 162140Z 13011KT 32/21 A2985 RMK A01 T03150210  RH  054%=      5-min Rain = 0
KSE2 162141Z 16009KT 31/21 A2985 RMK A01 T03140213  RH  055%=      5-min Rain = 0
KSE2 162142Z 19009KT 32/21 A2985 RMK A01 T03170214  RH  055%=      5-min Rain = 0
KSE2 162143Z 20008KT 32/21 A2985 RMK A01 T03180212  RH  054%=      5-min Rain = 0
KSE2 162144Z 20010KT 32/21 A2985 RMK A01 T03180211  RH  053%=      5-min Rain = 0
KSE2 162145Z 22006KT 32/21 A2985 RMK A01 T03160212  RH  054%=      5-min Rain = 0
KSE2 162146Z 20006KT 31/21 A2985 RMK A01 T03140212  RH  055%=      5-min Rain = 0
KSE2 162147Z 18007KT 31/21 A2985 RMK A01 T03120213  RH  056%=      5-min Rain = 0
KSE2 162148Z 17009KT 31/21 A2985 RMK A01 T03100211  RH  056%=      5-min Rain = 0
KSE2 162149Z 17010KT 31/21 A2985 RMK A01 T03090208  RH  055%=      5-min Rain = 0
KSE2 162150Z 19007KT 31/21 A2985 RMK A01 T03070208  RH  056%=      5-min Rain = 0
KSE2 162151Z 17006KT 31/21 A2985 RMK A01 T03060208  RH  056%=      5-min Rain = 0
KSE2 162152Z 17005KT 31/21 A2985 RMK A01 T03060209  RH  056%=      5-min Rain = 0
KSE2 162153Z 16004KT 31/21 A2985 RMK A01 T03080211  RH  057%=      5-min Rain = 0
KSE2 162154Z 15005KT 31/21 A2985 RMK A01 T03100210  RH  055%=      5-min Rain = 0
KSE2 162155Z 17005KT 31/21 A2985 RMK A01 T03120212  RH  055%=      5-min Rain = 0
KSE2 162156Z 18007KT 32/21 A2985 RMK A01 T03150214  RH  055%=      5-min Rain = 0
KSE2 162157Z 18009KT 32/21 A2984 RMK A01 T03180211  RH  053%=      5-min Rain = 0
KSE2 162158Z 18007KT 32/21 A2984 RMK A01 T03190210  RH  053%=      5-min Rain = 0
KSE2 162159Z 16006G11KT 32/22 A2984 RMK A01 T03190217  RH  055%=      5-min Rain = 0
KSE2 162200Z 18010KT 32/21 A2984 RMK A01 T03220212  RH  052%=      5-min Rain = 0
KSE2 162201Z 18013KT 32/21 A2985 RMK A01 T03210209  RH  052%=      5-min Rain = 0
KSE2 162202Z 18011KT 32/21 A2985 RMK A01 T03190209  RH  052%=      5-min Rain = 0
KSE2 162203Z 18009KT 32/21 A2985 RMK A01 T03180207  RH  052%=      5-min Rain = 0
KSE2 162204Z 17004G9KT 32/21 A2985 RMK A01 T03170211  RH  053%=      5-min Rain = 0
KSE2 162205Z 18006KT 32/21 A2985 RMK A01 T03180213  RH  054%=      5-min Rain = 0
KSE2 162206Z 19008KT 32/21 A2985 RMK A01 T03170211  RH  053%=      5-min Rain = 0
KSE2 162207Z 19007KT 32/21 A2985 RMK A01 T03150211  RH  054%=      5-min Rain = 0
KSE2 162208Z 19008KT 31/21 A2985 RMK A01 T03130210  RH  054%=      5-min Rain = 0
KSE2 162209Z 19009KT 31/21 A2985 RMK A01 T03130206  RH  053%=      5-min Rain = 0
KSE2 162210Z 19006KT 31/21 A2985 RMK A01 T03130205  RH  053%=      5-min Rain = 0
KSE2 162211Z 17007KT 32/21 A2985 RMK A01 T03150211  RH  054%=      5-min Rain = 0
KSE2 162212Z 16009KT 31/21 A2984 RMK A01 T03140206  RH  053%=      5-min Rain = 0
KSE2 162213Z 17006KT 31/21 A2984 RMK A01 T03110206  RH  054%=      5-min Rain = 0
KSE2 162214Z 18006KT 31/21 A2984 RMK A01 T03110207  RH  054%=      5-min Rain = 0
KSE2 162215Z 16005KT 31/21 A2984 RMK A01 T03110210  RH  055%=      5-min Rain = 0
KSE2 162216Z 16005KT 31/21 A2984 RMK A01 T03140214  RH  055%=      5-min Rain = 0
KSE2 162217Z 17007KT 32/21 A2984 RMK A01 T03180212  RH  054%=      5-min Rain = 0
KSE2 162218Z 18007KT 32/21 A2984 RMK A01 T03200212  RH  053%=      5-min Rain = 0
KSE2 162219Z 17009KT 32/21 A2984 RMK A01 T03210210  RH  052%=      5-min Rain = 0
KSE2 162220Z 17006KT 32/21 A2984 RMK A01 T03210207  RH  051%=      5-min Rain = 0
KSE2 162221Z 17006KT 32/21 A2984 RMK A01 T03200208  RH  052%=      5-min Rain = 0
KSE2 162222Z 18006KT 32/21 A2984 RMK A01 T03200213  RH  053%=      5-min Rain = 0
KSE2 162223Z 16004KT 32/21 A2984 RMK A01 T03210212  RH  053%=      5-min Rain = 0
KSE2 162224Z 16007KT 32/21 A2984 RMK A01 T03220209  RH  052%=      5-min Rain = 0
KSE2 162225Z 16007KT 32/21 A2984 RMK A01 T03210211  RH  052%=      5-min Rain = 0
KSE2 162226Z 15009KT 32/21 A2984 RMK A01 T03210214  RH  053%=      5-min Rain = 0
KSE2 162227Z 16011KT 32/21 A2984 RMK A01 T03200211  RH  053%=      5-min Rain = 0
KSE2 162228Z 16007KT 32/21 A2984 RMK A01 T03170209  RH  053%=      5-min Rain = 0
KSE2 162229Z 17008KT 32/21 A2984 RMK A01 T03160211  RH  054%=      5-min Rain = 0
KSE2 162230Z 18006KT 32/21 A2984 RMK A01 T03160211  RH  054%=      5-min Rain = 0
KSE2 162231Z 18005KT 32/21 A2985 RMK A01 T03160210  RH  053%=      5-min Rain = 0
KSE2 162232Z 18004G9KT 32/21 A2985 RMK A01 T03160212  RH  054%=      5-min Rain = 0
KSE2 162233Z 17007KT 32/21 A2984 RMK A01 T03180209  RH  053%=      5-min Rain = 0
KSE2 162234Z 17007KT 32/21 A2984 RMK A01 T03180208  RH  052%=      5-min Rain = 0
KSE2 162235Z 17004KT 32/21 A2984 RMK A01 T03180208  RH  052%=      5-min Rain = 0
KSE2 162236Z 20007KT 32/21 A2984 RMK A01 T03180211  RH  053%=      5-min Rain = 0
KSE2 162237Z 20010KT 32/20 A2984 RMK A01 T03190203  RH  050%=      5-min Rain = 0
KSE2 162238Z 19008KT 32/21 A2984 RMK A01 T03180205  RH  051%=      5-min Rain = 0
KSE2 162239Z 18009KT 32/21 A2984 RMK A01 T03170207  RH  052%=      5-min Rain = 0
KSE2 162240Z 16008KT 32/21 A2984 RMK A01 T03170207  RH  052%=      5-min Rain = 0
KSE2 162241Z 18007KT 32/20 A2984 RMK A01 T03170204  RH  051%=      5-min Rain = 0
KSE2 162242Z 19005KT 32/21 A2984 RMK A01 T03180209  RH  053%=      5-min Rain = 0
KSE2 162243Z 19007KT 32/21 A2984 RMK A01 T03200210  RH  052%=      5-min Rain = 0
KSE2 162244Z 18010KT 32/21 A2985 RMK A01 T03200210  RH  052%=      5-min Rain = 0
KSE2 162245Z 18008KT 32/21 A2985 RMK A01 T03190210  RH  052%=      5-min Rain = 0
KSE2 162246Z 19010KT 32/21 A2985 RMK A01 T03180208  RH  052%=      5-min Rain = 0
KSE2 162247Z 18009KT 32/21 A2985 RMK A01 T03180206  RH  052%=      5-min Rain = 0
KSE2 162248Z 19011KT 32/21 A2985 RMK A01 T03170205  RH  051%=      5-min Rain = 0
KSE2 162249Z 18010KT 32/21 A2985 RMK A01 T03170205  RH  051%=      5-min Rain = 0
KSE2 162250Z 17010KT 32/20 A2985 RMK A01 T03160204  RH  051%=      5-min Rain = 0
KSE2 162251Z 17007KT 32/21 A2984 RMK A01 T03160206  RH  052%=      5-min Rain = 0
KSE2 162252Z 19008KT 32/21 A2984 RMK A01 T03160209  RH  053%=      5-min Rain = 0
KSE2 162253Z 19008KT 32/21 A2984 RMK A01 T03160209  RH  053%=      5-min Rain = 0
KSE2 162254Z 19008KT 31/21 A2984 RMK A01 T03140209  RH  054%=      5-min Rain = 0
KSE2 162255Z 19008KT 31/21 A2984 RMK A01 T03130209  RH  054%=      5-min Rain = 0
KSE2 162256Z 19008KT 31/21 A2984 RMK A01 T03120211  RH  055%=      5-min Rain = 0
KSE2 162257Z 18008KT 31/21 A2984 RMK A01 T03130211  RH  055%=      5-min Rain = 0
KSE2 162258Z 19005KT 31/21 A2984 RMK A01 T03140211  RH  054%=      5-min Rain = 0
KSE2 162259Z 19010KT 32/21 A2984 RMK A01 T03150212  RH  054%=      5-min Rain = 0
KSE2 162300Z 19009KT 32/21 A2984 RMK A01 T03150210  RH  053%=      5-min Rain = 0
KSE2 162301Z 18007KT 32/21 A2984 RMK A01 T03150208  RH  053%=      5-min Rain = 0
KSE2 162302Z 16008KT 32/21 A2984 RMK A01 T03150210  RH  054%=      5-min Rain = 0
KSE2 162303Z 18009KT 32/21 A2984 RMK A01 T03160210  RH  053%=      5-min Rain = 0
KSE2 162304Z 18006KT 32/21 A2984 RMK A01 T03160211  RH  054%=      5-min Rain = 0
KSE2 162305Z 17007KT 32/21 A2984 RMK A01 T03170211  RH  053%=      5-min Rain = 0
KSE2 162306Z 17007KT 32/21 A2984 RMK A01 T03170207  RH  052%=      5-min Rain = 0
KSE2 162307Z 16006KT 32/21 A2984 RMK A01 T03170206  RH  052%=      5-min Rain = 0
KSE2 162308Z 15006KT 32/21 A2984 RMK A01 T03170209  RH  053%=      5-min Rain = 0
KSE2 162309Z 15009KT 32/21 A2984 RMK A01 T03180209  RH  053%=      5-min Rain = 0
KSE2 162310Z 16008KT 32/21 A2984 RMK A01 T03170208  RH  052%=      5-min Rain = 0
KSE2 162311Z 16008KT 32/21 A2984 RMK A01 T03170209  RH  053%=      5-min Rain = 0
KSE2 162312Z 16008KT 32/21 A2984 RMK A01 T03160211  RH  054%=      5-min Rain = 0
KSE2 162313Z 17009KT 32/21 A2984 RMK A01 T03170210  RH  053%=      5-min Rain = 0
KSE2 162314Z 17008KT 32/21 A2984 RMK A01 T03160207  RH  052%=      5-min Rain = 0
KSE2 162315Z 17007KT 32/21 A2984 RMK A01 T03150207  RH  053%=      5-min Rain = 0
KSE2 162316Z 15006KT 32/21 A2984 RMK A01 T03150208  RH  053%=      5-min Rain = 0
KSE2 162317Z 16007KT 32/21 A2984 RMK A01 T03150208  RH  053%=      5-min Rain = 0
KSE2 162318Z 17010KT 31/21 A2984 RMK A01 T03140208  RH  053%=      5-min Rain = 0
KSE2 162319Z 17009KT 31/21 A2984 RMK A01 T03140207  RH  053%=      5-min Rain = 0
KSE2 162320Z 15006KT 31/21 A2984 RMK A01 T03130209  RH  054%=      5-min Rain = 0
KSE2 162321Z 16006KT 31/21 A2984 RMK A01 T03140209  RH  054%=      5-min Rain = 0
KSE2 162322Z 17009KT 31/21 A2984 RMK A01 T03140210  RH  054%=      5-min Rain = 0
KSE2 162323Z 14009KT 31/21 A2984 RMK A01 T03140212  RH  055%=      5-min Rain = 0
KSE2 162324Z 14009KT 31/22 A2984 RMK A01 T03140215  RH  056%=      5-min Rain = 0
KSE2 162325Z 14009KT 31/22 A2984 RMK A01 T03140215  RH  056%=      5-min Rain = 0
KSE2 162326Z 15011KT 31/22 A2984 RMK A01 T03130216  RH  056%=      5-min Rain = 0
KSE2 162327Z 14011KT 31/22 A2984 RMK A01 T03130215  RH  056%=      5-min Rain = 0
KSE2 162328Z 14012KT 31/22 A2984 RMK A01 T03110215  RH  057%=      5-min Rain = 0
KSE2 162329Z 15010KT 31/22 A2984 RMK A01 T03110216  RH  057%=      5-min Rain = 0
KSE2 162330Z 15010KT 31/22 A2984 RMK A01 T03110215  RH  057%=      5-min Rain = 0
KSE2 162331Z 14010KT 31/22 A2984 RMK A01 T03100215  RH  057%=      5-min Rain = 0
KSE2 162332Z 15011KT 31/22 A2984 RMK A01 T03100215  RH  057%=      5-min Rain = 0
KSE2 162333Z 15010KT 31/22 A2984 RMK A01 T03090215  RH  057%=      5-min Rain = 0
KSE2 162334Z 15008KT 31/22 A2984 RMK A01 T03090216  RH  058%=      5-min Rain = 0
KSE2 162335Z 15009KT 31/22 A2984 RMK A01 T03090215  RH  057%=      5-min Rain = 0
KSE2 162336Z 15008KT 31/22 A2984 RMK A01 T03090215  RH  057%=      5-min Rain = 0
KSE2 162337Z 15010KT 31/21 A2984 RMK A01 T03080214  RH  057%=      5-min Rain = 0
KSE2 162338Z 15009KT 31/22 A2984 RMK A01 T03080215  RH  058%=      5-min Rain = 0
KSE2 162339Z 17008KT 31/22 A2984 RMK A01 T03080216  RH  058%=      5-min Rain = 0
KSE2 162340Z 17008KT 31/22 A2984 RMK A01 T03080217  RH  058%=      5-min Rain = 0
KSE2 162341Z 18009G14KT 31/22 A2984 RMK A01 T03080217  RH  058%=      5-min Rain = 0
KSE2 162342Z 18009KT 31/22 A2984 RMK A01 T03080215  RH  058%=      5-min Rain = 0
KSE2 162343Z 16010KT 31/22 A2984 RMK A01 T03080215  RH  058%=      5-min Rain = 0
KSE2 162344Z 16008KT 31/22 A2984 RMK A01 T03080216  RH  058%=      5-min Rain = 0
KSE2 162345Z 15006KT 31/22 A2984 RMK A01 T03080218  RH  059%=      5-min Rain = 0
KSE2 162346Z 15007KT 31/22 A2984 RMK A01 T03080220  RH  059%=      5-min Rain = 0
KSE2 162347Z 15007KT 31/22 A2984 RMK A01 T03080218  RH  059%=      5-min Rain = 0
KSE2 162348Z 15008KT 31/22 A2984 RMK A01 T03080219  RH  059%=      5-min Rain = 0
KSE2 162349Z 15010KT 31/22 A2984 RMK A01 T03080218  RH  059%=      5-min Rain = 0
KSE2 162350Z 16013KT 31/22 A2984 RMK A01 T03070215  RH  058%=      5-min Rain = 0
KSE2 162351Z 15011KT 31/22 A2984 RMK A01 T03060215  RH  058%=      5-min Rain = 0
KSE2 162352Z 15012KT 31/21 A2984 RMK A01 T03050214  RH  058%=      5-min Rain = 0
KSE2 162353Z 15012G17KT 30/21 A2984 RMK A01 T03040214  RH  059%=      5-min Rain = 0
KSE2 162354Z 14009KT 30/22 A2984 RMK A01 T03030215  RH  059%=      5-min Rain = 0
KSE2 162355Z 15009KT 30/22 A2984 RMK A01 T03030215  RH  059%=      5-min Rain = 0
KSE2 162356Z 17008G14KT 30/22 A2984 RMK A01 T03030217  RH  060%=      5-min Rain = 0
KSE2 162357Z 17011KT 30/22 A2984 RMK A01 T03030216  RH  060%=      5-min Rain = 0
KSE2 162358Z 16010KT 30/21 A2984 RMK A01 T03030214  RH  059%=      5-min Rain = 0
KSE2 162359Z 15012KT 30/22 A2984 RMK A01 T03030215  RH  059%=      5-min Rain = 0
KSE2 170000Z 15012KT 30/21 A2984 RMK A01 T03030213  RH  059%=      5-min Rain = 0
KSE2 170001Z 15011KT 30/21 A2984 RMK A01 T03020213  RH  059%=      5-min Rain = 0
KSE2 170002Z 15011KT 30/21 A2984 RMK A01 T03020214  RH  059%=      5-min Rain = 0
KSE2 170003Z 15012KT 30/21 A2984 RMK A01 T03020213  RH  059%=      5-min Rain = 0
KSE2 170004Z 15010KT 30/22 A2983 RMK A01 T03020215  RH  060%=      5-min Rain = 0
KSE2 170005Z 16009KT 30/22 A2983 RMK A01 T03020215  RH  059%=      5-min Rain = 0
KSE2 170006Z 15008KT 30/22 A2983 RMK A01 T03030216  RH  060%=      5-min Rain = 0
KSE2 170007Z 15011KT 30/21 A2983 RMK A01 T03030214  RH  059%=      5-min Rain = 0
KSE2 170008Z 15009KT 30/21 A2983 RMK A01 T03030214  RH  059%=      5-min Rain = 0
KSE2 170009Z 15007G12KT 30/22 A2983 RMK A01 T03030215  RH  059%=      5-min Rain = 0
KSE2 170010Z 15011KT 30/21 A2983 RMK A01 T03030214  RH  059%=      5-min Rain = 0
KSE2 170011Z 15011KT 30/22 A2983 RMK A01 T03030215  RH  059%=      5-min Rain = 0
KSE2 170012Z 15011KT 30/22 A2983 RMK A01 T03030215  RH  059%=      5-min Rain = 0
KSE2 170013Z 15009KT 30/22 A2983 RMK A01 T03030215  RH  060%=      5-min Rain = 0
KSE2 170014Z 16007KT 30/22 A2983 RMK A01 T03030216  RH  060%=      5-min Rain = 0
KSE2 170015Z 16007KT 30/22 A2983 RMK A01 T03030218  RH  060%=      5-min Rain = 0
KSE2 170016Z 16007KT 30/22 A2983 RMK A01 T03030218  RH  060%=      5-min Rain = 0
KSE2 170017Z 16009G14KT 30/22 A2983 RMK A01 T03030218  RH  060%=      5-min Rain = 0
KSE2 170018Z 16009KT 30/22 A2983 RMK A01 T03030215  RH  059%=      5-min Rain = 0
KSE2 170019Z 16010KT 30/22 A2983 RMK A01 T03030216  RH  060%=      5-min Rain = 0
KSE2 170020Z 16007KT 30/22 A2982 RMK A01 T03020217  RH  060%=      5-min Rain = 0
KSE2 170021Z 16009KT 30/22 A2982 RMK A01 T03020217  RH  060%=      5-min Rain = 0
KSE2 170022Z 15011KT 30/22 A2982 RMK A01 T03010217  RH  061%=      5-min Rain = 0
KSE2 170023Z 17011KT 30/22 A2982 RMK A01 T03000217  RH  061%=      5-min Rain = 0
KSE2 170024Z 16010KT 30/22 A2982 RMK A01 T02990215  RH  061%=      5-min Rain = 0
KSE2 170025Z 16008KT 30/22 A2982 RMK A01 T02980216  RH  062%=      5-min Rain = 0
KSE2 170026Z 16010G15KT 30/22 A2982 RMK A01 T02960215  RH  062%=      5-min Rain = 0
KSE2 170027Z 16011KT 30/22 A2982 RMK A01 T02950215  RH  062%=      5-min Rain = 0
KSE2 170028Z 15011G16KT 29/21 A2981 RMK A01 T02940214  RH  062%=      5-min Rain = 0
KSE2 170029Z 15013KT 29/21 A2981 RMK A01 T02940214  RH  062%=      5-min Rain = 0
KSE2 170030Z 15011KT 29/21 A2981 RMK A01 T02940214  RH  062%=      5-min Rain = 0
KSE2 170031Z 15010KT 29/22 A2981 RMK A01 T02930215  RH  063%=      5-min Rain = 0
KSE2 170032Z 16010KT 29/22 A2981 RMK A01 T02930215  RH  063%=      5-min Rain = 0
KSE2 170033Z 16010G15KT 29/22 A2981 RMK A01 T02920215  RH  063%=      5-min Rain = 0
KSE2 170034Z 17008KT 29/22 A2981 RMK A01 T02920215  RH  063%=      5-min Rain = 0
KSE2 170035Z 17007KT 29/22 A2981 RMK A01 T02910216  RH  064%=      5-min Rain = 0
KSE2 170036Z 15006KT 29/22 A2982 RMK A01 T02900216  RH  064%=      5-min Rain = 0
KSE2 170037Z 16008KT 29/22 A2982 RMK A01 T02900216  RH  064%=      5-min Rain = 0
KSE2 170038Z 16008KT 29/22 A2982 RMK A01 T02900215  RH  064%=      5-min Rain = 0
KSE2 170039Z 16007KT 29/22 A2982 RMK A01 T02900215  RH  064%=      5-min Rain = 0
KSE2 170040Z 16007KT 29/21 A2982 RMK A01 T02890214  RH  064%=      5-min Rain = 0
KSE2 170041Z 16009KT 29/21 A2983 RMK A01 T02890214  RH  064%=      5-min Rain = 0
KSE2 170042Z 15007KT 29/21 A2983 RMK A01 T02890214  RH  064%=      5-min Rain = 0
KSE2 170043Z 16010KT 29/21 A2983 RMK A01 T02900214  RH  064%=      5-min Rain = 0
KSE2 170044Z 15010KT 29/21 A2983 RMK A01 T02900214  RH  063%=      5-min Rain = 0
KSE2 170045Z 15009KT 29/21 A2983 RMK A01 T02910214  RH  063%=      5-min Rain = 0
KSE2 170046Z 14008G14KT 29/21 A2984 RMK A01 T02910214  RH  063%=      5-min Rain = 0
KSE2 170047Z 14010KT 29/22 A2984 RMK A01 T02910215  RH  063%=      5-min Rain = 0
KSE2 170048Z 15010KT 29/21 A2984 RMK A01 T02910214  RH  063%=      5-min Rain = 0
KSE2 170049Z 15010KT 29/21 A2984 RMK A01 T02910214  RH  063%=      5-min Rain = 0
KSE2 170050Z 14009KT 29/21 A2985 RMK A01 T02910214  RH  063%=      5-min Rain = 0
KSE2 170051Z 15008KT 29/22 A2985 RMK A01 T02910215  RH  064%=      5-min Rain = 0
KSE2 170052Z 15009KT 29/21 A2985 RMK A01 T02910214  RH  063%=      5-min Rain = 0
KSE2 170053Z 15009KT 29/21 A2986 RMK A01 T02910214  RH  063%=      5-min Rain = 0
KSE2 170054Z 15008KT 29/21 A2986 RMK A01 T02900214  RH  064%=      5-min Rain = 0
KSE2 170055Z 15008KT 29/22 A2986 RMK A01 T02910215  RH  064%=      5-min Rain = 0
KSE2 170056Z 14009KT 29/21 A2986 RMK A01 T02910214  RH  063%=      5-min Rain = 0
KSE2 170057Z 16008KT 29/21 A2986 RMK A01 T02910214  RH  063%=      5-min Rain = 0
KSE2 170058Z 15008KT 29/21 A2986 RMK A01 T02910214  RH  063%=      5-min Rain = 0
KSE2 170059Z 15007KT 29/21 A2986 RMK A01 T02910214  RH  063%=      5-min Rain = 0
KSE2 170100Z 15008KT 29/21 A2986 RMK A01 T02910214  RH  063%=      5-min Rain = 0
KSE2 170101Z 16009KT 29/21 A2986 RMK A01 T02910213  RH  063%=      5-min Rain = 0
KSE2 170102Z 15008KT 29/21 A2986 RMK A01 T02910212  RH  063%=      5-min Rain = 0
KSE2 170103Z 16007KT 29/21 A2986 RMK A01 T02910214  RH  063%=      5-min Rain = 0
KSE2 170104Z 17009KT 29/21 A2986 RMK A01 T02910213  RH  063%=      5-min Rain = 0
KSE2 170105Z 17008KT 29/21 A2986 RMK A01 T02900212  RH  063%=      5-min Rain = 0
KSE2 170106Z 16010KT 29/21 A2986 RMK A01 T02900212  RH  063%=      5-min Rain = 0
KSE2 170107Z 17008KT 29/21 A2986 RMK A01 T02900212  RH  063%=      5-min Rain = 0
KSE2 170108Z 17008KT 29/21 A2986 RMK A01 T02900213  RH  063%=      5-min Rain = 0
KSE2 170109Z 18009KT 29/21 A2986 RMK A01 T02900213  RH  063%=      5-min Rain = 0
KSE2 170110Z 17009G14KT 29/21 A2986 RMK A01 T02890212  RH  063%=      5-min Rain = 0
KSE2 170111Z 17009KT 29/21 A2986 RMK A01 T02890212  RH  063%=      5-min Rain = 0
KSE2 170112Z 18007KT 29/21 A2986 RMK A01 T02890212  RH  063%=      5-min Rain = 0
KSE2 170113Z 17011KT 29/21 A2985 RMK A01 T02890213  RH  063%=      5-min Rain = 0
KSE2 170114Z 18010KT 29/21 A2985 RMK A01 T02890212  RH  063%=      5-min Rain = 0
KSE2 170115Z 17007KT 29/21 A2985 RMK A01 T02890212  RH  063%=      5-min Rain = 0
KSE2 170116Z 17009KT 29/21 A2985 RMK A01 T02890213  RH  063%=      5-min Rain = 0
KSE2 170117Z 18008KT 29/21 A2985 RMK A01 T02890212  RH  063%=      5-min Rain = 0
KSE2 170118Z 18007KT 29/21 A2985 RMK A01 T02890212  RH  063%=      5-min Rain = 0
KSE2 170119Z 18006KT 29/21 A2985 RMK A01 T02890213  RH  063%=      5-min Rain = 0
KSE2 170120Z 18007KT 29/21 A2985 RMK A01 T02880213  RH  064%=      5-min Rain = 0
KSE2 170121Z 18007KT 29/21 A2985 RMK A01 T02880213  RH  064%=      5-min Rain = 0
KSE2 170122Z 18007KT 29/21 A2985 RMK A01 T02880213  RH  064%=      5-min Rain = 0
KSE2 170123Z 17005KT 29/21 A2986 RMK A01 T02880213  RH  064%=      5-min Rain = 0
KSE2 170124Z 17006KT 29/21 A2986 RMK A01 T02880213  RH  064%=      5-min Rain = 0
KSE2 170125Z 17007KT 29/21 A2986 RMK A01 T02870212  RH  064%=      5-min Rain = 0
KSE2 170126Z 17008KT 29/21 A2986 RMK A01 T02870212  RH  064%=      5-min Rain = 0
KSE2 170127Z 17007KT 29/21 A2986 RMK A01 T02870212  RH  064%=      5-min Rain = 0
KSE2 170128Z 17005KT 29/21 A2986 RMK A01 T02870212  RH  064%=      5-min Rain = 0
KSE2 170129Z 16006KT 29/21 A2986 RMK A01 T02870212  RH  064%=      5-min Rain = 0
KSE2 170130Z 16005KT 29/21 A2987 RMK A01 T02870212  RH  064%=      5-min Rain = 0
KSE2 170131Z 15005KT 29/21 A2987 RMK A01 T02870212  RH  064%=      5-min Rain = 0
KSE2 170132Z 16004KT 29/21 A2987 RMK A01 T02870213  RH  064%=      5-min Rain = 0
KSE2 170133Z 16006KT 29/21 A2987 RMK A01 T02870212  RH  064%=      5-min Rain = 0
KSE2 170134Z 15005KT 29/21 A2987 RMK A01 T02860213  RH  064%=      5-min Rain = 0
KSE2 170135Z 16005KT 29/21 A2987 RMK A01 T02870213  RH  064%=      5-min Rain = 0
KSE2 170136Z 15005KT 29/21 A2987 RMK A01 T02860212  RH  064%=      5-min Rain = 0
KSE2 170137Z 15004KT 29/21 A2987 RMK A01 T02860212  RH  064%=      5-min Rain = 0
KSE2 170138Z 14004KT 29/21 A2987 RMK A01 T02860213  RH  065%=      5-min Rain = 0
KSE2 170139Z 14004KT 29/21 A2987 RMK A01 T02860213  RH  065%=      5-min Rain = 0
KSE2 170140Z 13003KT 29/21 A2988 RMK A01 T02860213  RH  065%=      5-min Rain = 0
KSE2 170141Z 12003KT 29/21 A2988 RMK A01 T02850212  RH  065%=      5-min Rain = 0
KSE2 170142Z 10004KT 29/21 A2988 RMK A01 T02850212  RH  065%=      5-min Rain = 0
KSE2 170143Z 07003KT 29/21 A2988 RMK A01 T02850212  RH  065%=      5-min Rain = 0
KSE2 170144Z 05004KT 29/21 A2988 RMK A01 T02850212  RH  065%=      5-min Rain = 0
KSE2 170145Z 04005KT 29/21 A2988 RMK A01 T02850213  RH  065%=      5-min Rain = 0
KSE2 170146Z 02005KT 29/21 A2988 RMK A01 T02850214  RH  065%=      5-min Rain = 0
KSE2 170147Z 02007KT 28/21 A2988 RMK A01 T02840213  RH  065%=      5-min Rain = 0
KSE2 170148Z 02008KT 28/19 A2988 RMK A01 T02790191  RH  059%=      5-min Rain = 0
KSE2 170149Z 02010KT 27/18 A2989 RMK A01 T02690178  RH  057%=      5-min Rain = 0
KSE2 170150Z 02008KT 26/17 A2989 RMK A01 T02620171  RH  057%=      5-min Rain = 0
KSE2 170151Z 02007KT 26/17 A2989 RMK A01 T02570170  RH  059%=      5-min Rain = 0
KSE2 170152Z 02008KT 25/17 A2989 RMK A01 T02540171  RH  060%=      5-min Rain = 0
KSE2 170153Z 00013G20KT 25/17 A2989 RMK A01 T02530171  RH  061%=      5-min Rain = 0
KSE2 170154Z 01012G21KT 25/17 A2989 RMK A01 T02500169  RH  061%=      5-min Rain = 0
KSE2 170155Z 01015G20KT 25/17 A2989 RMK A01 T02480166  RH  061%=      5-min Rain = 0
KSE2 170156Z 01017KT 25/16 A2989 RMK A01 T02460163  RH  060%=      5-min Rain = 0
KSE2 170157Z 01014KT 25/16 A2989 RMK A01 T02450161  RH  059%=      5-min Rain = 0
KSE2 170158Z 01011KT 25/16 A2989 RMK A01 T02450160  RH  059%=      5-min Rain = 0
KSE2 170159Z 00018G24KT 24/16 A2989 RMK A01 T02440155  RH  057%=      5-min Rain = 0
KSE2 170200Z 00018KT 24/15 A299 RMK A01 T02430150  RH  056%=      5-min Rain = 0
KSE2 170201Z 00015G20KT 24/15 A299 RMK A01 T02430147  RH  055%=      5-min Rain = 0
KSE2 170202Z 00017KT 24/15 A299 RMK A01 T02420149  RH  056%=      5-min Rain = 0
KSE2 170203Z 35014G20KT 24/14 A299 RMK A01 T02380143  RH  055%=      5-min Rain = 0
KSE2 170204Z 36012G18KT 23/14 A299 RMK A01 T02330142  RH  056%=      5-min Rain = 0
KSE2 170205Z 00011KT 23/14 A299 RMK A01 T02310141  RH  057%=      5-min Rain = 0
KSE2 170206Z 01012G22KT 23/14 A299 RMK A01 T02290142  RH  058%=      5-min Rain = 0
KSE2 170207Z 01011KT 23/14 A299 RMK A01 T02280141  RH  058%=      5-min Rain = 0
KSE2 170208Z 01011KT 23/14 A299 RMK A01 T02280141  RH  058%=      5-min Rain = 0
KSE2 170209Z 03010KT 23/14 A299 RMK A01 T02290141  RH  058%=      5-min Rain = 0
KSE2 170210Z 02008G13KT 23/14 A299 RMK A01 T02290141  RH  058%=      5-min Rain = 0
KSE2 170211Z 03013G21KT 23/14 A299 RMK A01 T02290142  RH  058%=      5-min Rain = 0
KSE2 170212Z 02015G25KT 23/14 A299 RMK A01 T02300142  RH  057%=      5-min Rain = 0
KSE2 170213Z 02016G28KT 23/14 A299 RMK A01 T02310139  RH  056%=      5-min Rain = 0
KSE2 170214Z 01014G20KT 23/14 A299 RMK A01 T02320137  RH  055%=      5-min Rain = 0
KSE2 170215Z 03014G19KT 23/14 A299 RMK A01 T02320135  RH  054%=      5-min Rain = 0
KSE2 170216Z 01018G23KT 23/13 A299 RMK A01 T02320132  RH  053%=      5-min Rain = 0
KSE2 170217Z 02016G21KT 23/13 A299 RMK A01 T02320129  RH  052%=      5-min Rain = 0
KSE2 170218Z 02017G26KT 23/13 A2989 RMK A01 T02320129  RH  052%=      5-min Rain = 0
KSE2 170219Z 02020G29KT 23/13 A2989 RMK A01 T02310130  RH  053%=      5-min Rain = 0
KSE2 170220Z 00017G26KT 23/13 A2989 RMK A01 T02290131  RH  054%=      5-min Rain = 0
KSE2 170221Z 01016G22KT 23/13 A2989 RMK A01 T02260133  RH  055%=      5-min Rain = 0
KSE2 170222Z 02018KT 22/13 A2989 RMK A01 T02240134  RH  057%=      5-min Rain = 0
KSE2 170223Z 02015KT 22/14 A2989 RMK A01 T02230136  RH  058%=      5-min Rain = 0
KSE2 170224Z 02018G25KT 22/14 A2988 RMK A01 T02220137  RH  058%=      5-min Rain = 0
KSE2 170225Z 04017KT 22/14 A2989 RMK A01 T02220139  RH  059%=      5-min Rain = 0
KSE2 170226Z 04018G24KT 22/14 A2989 RMK A01 T02200141  RH  061%=      5-min Rain = 0
KSE2 170227Z 05013G19KT 22/14 A2989 RMK A01 T02190142  RH  062%=      5-min Rain = 0
KSE2 170228Z 04012KT 22/14 A2989 RMK A01 T02170143  RH  063%=      5-min Rain = 0
KSE2 170229Z 03014G21KT 22/15 A2989 RMK A01 T02150145  RH  064%=      5-min Rain = 0
KSE2 170230Z 04016G21KT 21/15 A2989 RMK A01 T02140145  RH  065%=      5-min Rain = 0
KSE2 170231Z 03012G18KT 21/15 A299 RMK A01 T02140146  RH  065%=      5-min Rain = 0
KSE2 170232Z 03014G23KT 21/15 A2991 RMK A01 T02130147  RH  066%=      5-min Rain = 0
KSE2 170233Z 02014G21KT 21/14 A2991 RMK A01 T02130141  RH  063%=      5-min Rain = 0
KSE2 170234Z 03013G18KT 22/14 A2991 RMK A01 T02150141  RH  063%=      5-min Rain = 0
KSE2 170235Z 03012KT 22/14 A2992 RMK A01 T02160138  RH  061%=      5-min Rain = 0
KSE2 170236Z 03006KT 22/14 A2992 RMK A01 T02170139  RH  061%=      5-min Rain = 0
KSE2 170237Z 01006KT 22/14 A2992 RMK A01 T02180141  RH  062%=      5-min Rain = 0
KSE2 170238Z 03009KT 22/14 A2992 RMK A01 T02170140  RH  062%=      5-min Rain = 0
KSE2 170239Z 03007KT 22/14 A2992 RMK A01 T02180139  RH  061%=      5-min Rain = 0
KSE2 170240Z 02003KT 22/14 A2992 RMK A01 T02170139  RH  061%=      5-min Rain = 0
KSE2 170241Z 03004KT 22/14 A2992 RMK A01 T02170138  RH  061%=      5-min Rain = 0
KSE2 170242Z 01003KT 22/14 A2992 RMK A01 T02170139  RH  061%=      5-min Rain = 0
KSE2 170243Z 02004KT 22/14 A2992 RMK A01 T02170139  RH  061%=      5-min Rain = 0
KSE2 170244Z 01007KT 22/14 A2992 RMK A01 T02170138  RH  060%=      5-min Rain = 0
KSE2 170245Z 04005G11KT 22/14 A2992 RMK A01 T02180135  RH  060%=      5-min Rain = 0
KSE2 170246Z 05008KT 22/13 A2992 RMK A01 T02180132  RH  058%=      5-min Rain = 0
KSE2 170247Z 06010G18KT 22/13 A2991 RMK A01 T02190130  RH  057%=      5-min Rain = 0
KSE2 170248Z 04015G21KT 22/13 A2991 RMK A01 T02190127  RH  056%=      5-min Rain = 0
KSE2 170249Z 04016G21KT 22/12 A2991 RMK A01 T02200124  RH  054%=      5-min Rain = 0
KSE2 170250Z 04011G16KT 22/12 A2991 RMK A01 T02200124  RH  055%=      5-min Rain = 0
KSE2 170251Z 04012G17KT 22/12 A299 RMK A01 T02200124  RH  054%=      5-min Rain = 0
KSE2 170252Z 04012G17KT 22/12 A299 RMK A01 T02200123  RH  054%=      5-min Rain = 0
KSE2 170253Z 05014G19KT 22/12 A299 RMK A01 T02190121  RH  054%=      5-min Rain = 0
KSE2 170254Z 05012G24KT 22/12 A299 RMK A01 T02200119  RH  053%=      5-min Rain = 0
KSE2 170255Z 05017G23KT 22/12 A299 RMK A01 T02210118  RH  052%=      5-min Rain = 0
KSE2 170256Z 04015G20KT 22/12 A2991 RMK A01 T02210117  RH  052%=      5-min Rain = 0
KSE2 170257Z 05013G20KT 22/12 A2992 RMK A01 T02210118  RH  052%=      5-min Rain = 0
KSE2 170258Z 05012G19KT 22/12 A2992 RMK A01 T02210119  RH  052%=      5-min Rain = 0
KSE2 170259Z 05017G23KT 22/12 A2993 RMK A01 T02210116  RH  051%=      5-min Rain = 0
KSE2 170300Z 05012KT 22/12 A2994 RMK A01 T02220116  RH  051%=      5-min Rain = 0
KSE2 170301Z 05009KT 22/12 A2994 RMK A01 T02230117  RH  051%=      5-min Rain = 0
KSE2 170302Z 06007KT 22/12 A2995 RMK A01 T02230119  RH  051%=      5-min Rain = 0
KSE2 170303Z 08008KT 22/12 A2995 RMK A01 T02230120  RH  052%=      5-min Rain = 0
KSE2 170304Z 10013KT 22/12 A2994 RMK A01 T02220123  RH  053%=      5-min Rain = 0
KSE2 170305Z 09015KT 22/13 A2994 RMK A01 T02210127  RH  055%=      5-min Rain = 0
KSE2 170306Z 09019G26KT 22/13 A2994 RMK A01 T02190127  RH  056%=      5-min Rain = 0
KSE2 170307Z 09020G27KT 22/12 A2994 RMK A01 T02190122  RH  054%=      5-min Rain = 0
KSE2 170308Z 10020G26KT 22/12 A2994 RMK A01 T02180123  RH  055%=      5-min Rain = 0
KSE2 170309Z 09014KT 22/13 A2994 RMK A01 T02170125  RH  056%=      5-min Rain = 0
KSE2 170310Z 09015KT 22/13 A2994 RMK A01 T02150127  RH  057%=      5-min Rain = 0
KSE2 170311Z 10015G21KT 21/13 A2993 RMK A01 T02130127  RH  058%=      5-min Rain = 0
KSE2 170312Z 10016KT 21/13 A2993 RMK A01 T02120129  RH  059%=      5-min Rain = 0
KSE2 170313Z 09014KT 21/13 A2993 RMK A01 T02100130  RH  060%=      5-min Rain = 0
KSE2 170314Z 10019G25KT 21/13 A2993 RMK A01 T02090132  RH  061%=      5-min Rain = 0
KSE2 170315Z 09018G23KT 21/14 A2993 RMK A01 T02080135  RH  063%=      5-min Rain = 0
KSE2 170316Z 09015G27KT 21/14 A2993 RMK A01 T02060137  RH  065%=      5-min Rain = 0
KSE2 170317Z 09022KT 21/13 A2992 RMK A01 T02060134  RH  063%=      5-min Rain = 0
KSE2 170318Z 08017G22KT 21/14 A2992 RMK A01 T02090135  RH  062%=      5-min Rain = 0
KSE2 170319Z 08014KT 21/14 A2992 RMK A01 T02100138  RH  063%=      5-min Rain = 0
KSE2 170320Z 08012G18KT 21/14 A2992 RMK A01 T02080139  RH  064%=      5-min Rain = 0
KSE2 170321Z 08013KT 21/14 A2991 RMK A01 T02070139  RH  065%=      5-min Rain = 0
KSE2 170322Z 08014G20KT 21/14 A2991 RMK A01 T02060141  RH  066%=      5-min Rain = 0
KSE2 170323Z 08013KT 21/14 A2991 RMK A01 T02050142  RH  067%=      5-min Rain = 0
KSE2 170324Z 09010KT 20/14 A2991 RMK A01 T02040142  RH  067%=      5-min Rain = 0
KSE2 170325Z 09009G14KT 20/14 A2991 RMK A01 T02040143  RH  068%=      5-min Rain = 0
KSE2 170326Z 10015G24KT 20/14 A2991 RMK A01 T02030144  RH  069%=      5-min Rain = 0
KSE2 170327Z 11018KT 20/15 A2991 RMK A01 T02020146  RH  070%=      5-min Rain = 0
KSE2 170328Z 11012KT 20/15 A2991 RMK A01 T02020147  RH  071%=      5-min Rain = 0
KSE2 170329Z 11014KT 20/15 A299 RMK A01 T02000148  RH  072%=      5-min Rain = 0
KSE2 170330Z 10011KT 20/15 A299 RMK A01 T01990150  RH  073%=      5-min Rain = 0
KSE2 170331Z 09009KT 20/15 A299 RMK A01 T01980151  RH  074%=      5-min Rain = 0
KSE2 170332Z 09007KT 20/15 A299 RMK A01 T01970151  RH  075%=      5-min Rain = 0
KSE2 170333Z 09008KT 20/15 A299 RMK A01 T01960153  RH  076%=      5-min Rain = 0
KSE2 170334Z 09005KT 20/15 A299 RMK A01 T01960153  RH  076%=      5-min Rain = 0
KSE2 170335Z 10004KT 20/15 A299 RMK A01 T01950153  RH  077%=      5-min Rain = 0
KSE2 170336Z 10003KT 20/15 A299 RMK A01 T01950154  RH  077%=      5-min Rain = 0
KSE2 170337Z 11004KT 20/15 A299 RMK A01 T01950154  RH  077%=      5-min Rain = 0
KSE2 170338Z 12005KT 19/16 A299 RMK A01 T01940155  RH  078%=      5-min Rain = 0
KSE2 170339Z 13004KT 19/16 A299 RMK A01 T01940156  RH  078%=      5-min Rain = 0
KSE2 170340Z 12004KT 19/16 A299 RMK A01 T01940155  RH  078%=      5-min Rain = 0
KSE2 170341Z 12005KT 19/16 A2991 RMK A01 T01940155  RH  078%=      5-min Rain = 0
KSE2 170342Z 12005KT 20/16 A2991 RMK A01 T01960155  RH  078%=      5-min Rain = 0
KSE2 170343Z 11003KT 20/16 A2991 RMK A01 T01970156  RH  077%=      5-min Rain = 0
KSE2 170344Z 12002KT 20/16 A2992 RMK A01 T01970156  RH  077%=      5-min Rain = 0
KSE2 170345Z 11002KT 20/16 A2992 RMK A01 T01980156  RH  077%=      5-min Rain = 0
KSE2 170346Z 12004KT 20/16 A2992 RMK A01 T01980156  RH  077%=      5-min Rain = 0
KSE2 170347Z 14003KT 20/16 A2992 RMK A01 T01970156  RH  077%=      5-min Rain = 0
KSE2 170348Z 14004KT 20/16 A2992 RMK A01 T01980157  RH  078%=      5-min Rain = 0
KSE2 170349Z 14003KT 20/16 A2992 RMK A01 T01980158  RH  078%=      5-min Rain = 0
KSE2 170350Z 15003KT 20/16 A2992 RMK A01 T01970158  RH  078%=      5-min Rain = 0
KSE2 170351Z 15004KT 20/16 A2993 RMK A01 T01960158  RH  079%=      5-min Rain = 0
KSE2 170352Z 15006KT 20/16 A2993 RMK A01 T01950158  RH  079%=      5-min Rain = 0
KSE2 170353Z 15008KT 19/16 A2993 RMK A01 T01940159  RH  080%=      5-min Rain = 0
KSE2 170354Z 16007KT 19/16 A2993 RMK A01 T01940160  RH  081%=      5-min Rain = 0
KSE2 170355Z 16007KT 19/16 A2994 RMK A01 T01930160  RH  081%=      5-min Rain = 0
KSE2 170356Z 16008KT 19/16 A2994 RMK A01 T01930160  RH  082%=      5-min Rain = 0
KSE2 170357Z 16007KT 19/16 A2994 RMK A01 T01930161  RH  082%=      5-min Rain = 0
KSE2 170358Z 16005KT 19/16 A2994 RMK A01 T01920161  RH  082%=      5-min Rain = 0
KSE2 170359Z 17005KT 19/16 A2995 RMK A01 T01920162  RH  083%=      5-min Rain = 0
KSE2 170400Z 18004KT 19/16 A2995 RMK A01 T01920162  RH  083%=      5-min Rain = 0
KSE2 170401Z 17004KT 19/16 A2994 RMK A01 T01920162  RH  083%=      5-min Rain = 0
KSE2 170402Z 18003KT 19/16 A2994 RMK A01 T01920162  RH  083%=      5-min Rain = 0
KSE2 170403Z 17003KT 19/16 A2994 RMK A01 T01920162  RH  083%=      5-min Rain = 0
KSE2 170404Z 16004KT 19/16 A2994 RMK A01 T01920163  RH  083%=      5-min Rain = 0
KSE2 170405Z 18004KT 19/16 A2993 RMK A01 T01930163  RH  083%=      5-min Rain = 0
KSE2 170406Z 18004KT 19/16 A2993 RMK A01 T01930163  RH  083%=      5-min Rain = 0
KSE2 170407Z 21003KT 19/16 A2993 RMK A01 T01940163  RH  083%=      5-min Rain = 0
KSE2 170408Z 21002KT 19/16 A2993 RMK A01 T01940164  RH  083%=      5-min Rain = 0
KSE2 170409Z 16002KT 19/16 A2993 RMK A01 T01940164  RH  083%=      5-min Rain = 0
KSE2 170410Z 19001KT 19/16 A2993 RMK A01 T01940164  RH  083%=      5-min Rain = 0
KSE2 170411Z 17001KT 19/16 A2993 RMK A01 T01940163  RH  082%=      5-min Rain = 0
KSE2 170412Z 16001KT 20/16 A2993 RMK A01 T01950163  RH  082%=      5-min Rain = 0
KSE2 170413Z 17001KT 20/16 A2993 RMK A01 T01950164  RH  082%=      5-min Rain = 0
KSE2 170414Z 22000KT 20/17 A2993 RMK A01 T01950165  RH  083%=      5-min Rain = 0
KSE2 170415Z 26001KT 20/17 A2992 RMK A01 T01960165  RH  083%=      5-min Rain = 0
KSE2 170416Z 26002KT 20/17 A2992 RMK A01 T01950166  RH  083%=      5-min Rain = 0
KSE2 170417Z 25002KT 20/17 A2992 RMK A01 T01950166  RH  083%=      5-min Rain = 0
KSE2 170418Z 25002KT 20/17 A2992 RMK A01 T01950165  RH  083%=      5-min Rain = 0
KSE2 170419Z 25002KT 20/17 A2992 RMK A01 T01950165  RH  082%=      5-min Rain = 0
KSE2 170420Z 24002KT 20/17 A2993 RMK A01 T01960165  RH  082%=      5-min Rain = 0
KSE2 170421Z 23002KT 20/17 A2993 RMK A01 T01960165  RH  082%=      5-min Rain = 0
KSE2 170422Z 21002KT 20/17 A2993 RMK A01 T01960166  RH  083%=      5-min Rain = 0
KSE2 170423Z 21003KT 20/17 A2993 RMK A01 T01970166  RH  082%=      5-min Rain = 0
KSE2 170424Z 22001KT 20/17 A2993 RMK A01 T01970166  RH  082%=      5-min Rain = 0
KSE2 170425Z 31002KT 20/17 A2993 RMK A01 T01980167  RH  082%=      5-min Rain = 0
KSE2 170426Z 33005KT 20/17 A2994 RMK A01 T01980167  RH  082%=      5-min Rain = 0
KSE2 170427Z 34009KT 20/17 A2994 RMK A01 T01980167  RH  082%=      5-min Rain = 0
KSE2 170428Z 34010KT 20/17 A2994 RMK A01 T01980165  RH  082%=      5-min Rain = 0
KSE2 170429Z 33008KT 20/16 A2994 RMK A01 T01980164  RH  081%=      5-min Rain = 0
KSE2 170430Z 33007KT 20/16 A2994 RMK A01 T01980163  RH  080%=      5-min Rain = 0
KSE2 170431Z 32006KT 20/16 A2994 RMK A01 T01990163  RH  080%=      5-min Rain = 0
KSE2 170432Z 31007KT 20/16 A2994 RMK A01 T01990163  RH  080%=      5-min Rain = 0
KSE2 170433Z 31006KT 20/16 A2994 RMK A01 T01990162  RH  079%=      5-min Rain = 0
KSE2 170434Z 31007KT 20/16 A2994 RMK A01 T02000162  RH  079%=      5-min Rain = 0
KSE2 170435Z 31005KT 20/16 A2993 RMK A01 T02000162  RH  078%=      5-min Rain = 0
KSE2 170436Z 30005KT 20/16 A2993 RMK A01 T02010162  RH  078%=      5-min Rain = 0
KSE2 170437Z 29004KT 20/16 A2993 RMK A01 T02010162  RH  078%=      5-min Rain = 0
KSE2 170438Z 28004KT 20/16 A2993 RMK A01 T02010161  RH  078%=      5-min Rain = 0
KSE2 170439Z 28004KT 20/16 A2993 RMK A01 T02010161  RH  077%=      5-min Rain = 0
KSE2 170440Z 29004KT 20/16 A2993 RMK A01 T02020160  RH  077%=      5-min Rain = 0
KSE2 170441Z 30005KT 20/16 A2993 RMK A01 T02020161  RH  077%=      5-min Rain = 0
KSE2 170442Z 30005KT 20/16 A2993 RMK A01 T02020161  RH  077%=      5-min Rain = 0
KSE2 170443Z 31006KT 20/16 A2994 RMK A01 T02020161  RH  077%=      5-min Rain = 0
KSE2 170444Z 31007KT 20/16 A2994 RMK A01 T02020162  RH  078%=      5-min Rain = 0
KSE2 170445Z 30005KT 20/16 A2994 RMK A01 T02020161  RH  077%=      5-min Rain = 0
KSE2 170446Z 30004KT 20/16 A2994 RMK A01 T02020160  RH  077%=      5-min Rain = 0
KSE2 170447Z 31005KT 20/16 A2993 RMK A01 T02020159  RH  076%=      5-min Rain = 0
KSE2 170448Z 30005KT 20/16 A2993 RMK A01 T02020159  RH  076%=      5-min Rain = 0
KSE2 170449Z 28004KT 20/16 A2993 RMK A01 T02020157  RH  075%=      5-min Rain = 0
KSE2 170450Z 27004KT 20/16 A2993 RMK A01 T02020157  RH  075%=      5-min Rain = 0
KSE2 170451Z 27004KT 20/16 A2993 RMK A01 T02030158  RH  075%=      5-min Rain = 0
KSE2 170452Z 27004KT 20/16 A2993 RMK A01 T02030158  RH  075%=      5-min Rain = 0
KSE2 170453Z 28003KT 20/16 A2993 RMK A01 T02030157  RH  075%=      5-min Rain = 0
KSE2 170454Z 27004KT 20/16 A2993 RMK A01 T02030158  RH  075%=      5-min Rain = 0
KSE2 170455Z 27004KT 20/16 A2993 RMK A01 T02030158  RH  075%=      5-min Rain = 0
KSE2 170456Z 26004KT 20/16 A2993 RMK A01 T02030158  RH  075%=      5-min Rain = 0
KSE2 170457Z 26003KT 20/16 A2992 RMK A01 T02030158  RH  075%=      5-min Rain = 0
KSE2 170458Z 26003KT 20/16 A2992 RMK A01 T02030158  RH  076%=      5-min Rain = 0
KSE2 170459Z 25002KT 20/16 A2992 RMK A01 T02030159  RH  076%=      5-min Rain = 0

Page generated in 0.0899 seconds.